<?xml version="1.0" encoding="UTF-8" standalone="no" ?>
<gpx xmlns="http://www.topografix.com/GPX/1/1" xmlns:xsi="http://www.w3.org/2001/XMLSchema-instance" xsi:schemaLocation="http://www.topografix.com/GPX/1/1 http://www.topografix.com/GPX/1/1/gpx.xsd" version="1.1" creator="VisuGPX - https://www.visugpx.com">
  <metadata>
    <name>sortie VTT Valdurenque-Noailhac (81)</name>
    <desc><![CDATA[quelques belles pistes ]]></desc>
  </metadata>
  <trk>
    <name><![CDATA[2015-12-17T14_2]]></name>
    <trkseg>
      <trkpt lat="43.56829" lon="2.30976">
        <ele>225.5665283</ele>
        <time>2015-12-17T14:20:59Z</time>
      </trkpt>
      <trkpt lat="43.56846" lon="2.30926">
        <ele>221.7211914</ele>
        <time>2015-12-17T14:21:09Z</time>
      </trkpt>
      <trkpt lat="43.5686" lon="2.30884">
        <ele>215.9532471</ele>
        <time>2015-12-17T14:21:17Z</time>
      </trkpt>
      <trkpt lat="43.56875" lon="2.30875">
        <ele>211.6274414</ele>
        <time>2015-12-17T14:21:21Z</time>
      </trkpt>
      <trkpt lat="43.56882" lon="2.30876">
        <ele>210.6660156</ele>
        <time>2015-12-17T14:21:22Z</time>
      </trkpt>
      <trkpt lat="43.56913" lon="2.30873">
        <ele>206.3400879</ele>
        <time>2015-12-17T14:21:26Z</time>
      </trkpt>
      <trkpt lat="43.56955" lon="2.30887">
        <ele>201.5335693</ele>
        <time>2015-12-17T14:21:31Z</time>
      </trkpt>
      <trkpt lat="43.56992" lon="2.30912">
        <ele>202.494873</ele>
        <time>2015-12-17T14:21:36Z</time>
      </trkpt>
      <trkpt lat="43.57027" lon="2.30946">
        <ele>203.9368896</ele>
        <time>2015-12-17T14:21:42Z</time>
      </trkpt>
      <trkpt lat="43.5704" lon="2.30965">
        <ele>207.3013916</ele>
        <time>2015-12-17T14:21:45Z</time>
      </trkpt>
      <trkpt lat="43.57049" lon="2.30985">
        <ele>206.8206787</ele>
        <time>2015-12-17T14:21:48Z</time>
      </trkpt>
      <trkpt lat="43.57071" lon="2.31037">
        <ele>207.3013916</ele>
        <time>2015-12-17T14:21:56Z</time>
      </trkpt>
      <trkpt lat="43.57082" lon="2.31067">
        <ele>209.704834</ele>
        <time>2015-12-17T14:22:01Z</time>
      </trkpt>
      <trkpt lat="43.57085" lon="2.31083">
        <ele>210.1854248</ele>
        <time>2015-12-17T14:22:04Z</time>
      </trkpt>
      <trkpt lat="43.57096" lon="2.311">
        <ele>211.6274414</ele>
        <time>2015-12-17T14:22:08Z</time>
      </trkpt>
      <trkpt lat="43.57113" lon="2.31102">
        <ele>213.5500488</ele>
        <time>2015-12-17T14:22:11Z</time>
      </trkpt>
      <trkpt lat="43.57127" lon="2.31096">
        <ele>211.1467285</ele>
        <time>2015-12-17T14:22:13Z</time>
      </trkpt>
      <trkpt lat="43.57147" lon="2.31087">
        <ele>205.8594971</ele>
        <time>2015-12-17T14:22:16Z</time>
      </trkpt>
      <trkpt lat="43.57178" lon="2.31081">
        <ele>202.9754639</ele>
        <time>2015-12-17T14:22:21Z</time>
      </trkpt>
      <trkpt lat="43.57195" lon="2.31076">
        <ele>201.5335693</ele>
        <time>2015-12-17T14:22:24Z</time>
      </trkpt>
      <trkpt lat="43.57238" lon="2.31075">
        <ele>201.5335693</ele>
        <time>2015-12-17T14:22:32Z</time>
      </trkpt>
      <trkpt lat="43.57243" lon="2.31076">
        <ele>201.5335693</ele>
        <time>2015-12-17T14:22:33Z</time>
      </trkpt>
      <trkpt lat="43.57258" lon="2.31076">
        <ele>200.5722656</ele>
        <time>2015-12-17T14:22:36Z</time>
      </trkpt>
      <trkpt lat="43.57266" lon="2.31074">
        <ele>199.130127</ele>
        <time>2015-12-17T14:22:38Z</time>
      </trkpt>
      <trkpt lat="43.57279" lon="2.31063">
        <ele>205.8594971</ele>
        <time>2015-12-17T14:22:42Z</time>
      </trkpt>
      <trkpt lat="43.57292" lon="2.3105">
        <ele>207.7821045</ele>
        <time>2015-12-17T14:22:48Z</time>
      </trkpt>
      <trkpt lat="43.57294" lon="2.31048">
        <ele>206.3400879</ele>
        <time>2015-12-17T14:22:53Z</time>
      </trkpt>
      <trkpt lat="43.57296" lon="2.31045">
        <ele>208.7434082</ele>
        <time>2015-12-17T14:22:57Z</time>
      </trkpt>
      <trkpt lat="43.57303" lon="2.31039">
        <ele>208.7434082</ele>
        <time>2015-12-17T14:23:03Z</time>
      </trkpt>
      <trkpt lat="43.57315" lon="2.31036">
        <ele>213.0693359</ele>
        <time>2015-12-17T14:23:08Z</time>
      </trkpt>
      <trkpt lat="43.57329" lon="2.3104">
        <ele>216.43396</ele>
        <time>2015-12-17T14:23:13Z</time>
      </trkpt>
      <trkpt lat="43.57347" lon="2.31049">
        <ele>219.798584</ele>
        <time>2015-12-17T14:23:19Z</time>
      </trkpt>
      <trkpt lat="43.5737" lon="2.31059">
        <ele>220.7598877</ele>
        <time>2015-12-17T14:23:26Z</time>
      </trkpt>
      <trkpt lat="43.57391" lon="2.31074">
        <ele>224.6052246</ele>
        <time>2015-12-17T14:23:33Z</time>
      </trkpt>
      <trkpt lat="43.5742" lon="2.31098">
        <ele>223.163208</ele>
        <time>2015-12-17T14:23:42Z</time>
      </trkpt>
      <trkpt lat="43.57442" lon="2.3112">
        <ele>222.2017822</ele>
        <time>2015-12-17T14:23:49Z</time>
      </trkpt>
      <trkpt lat="43.5746" lon="2.31133">
        <ele>223.6437988</ele>
        <time>2015-12-17T14:23:55Z</time>
      </trkpt>
      <trkpt lat="43.57476" lon="2.3114">
        <ele>222.6824951</ele>
        <time>2015-12-17T14:24:00Z</time>
      </trkpt>
      <trkpt lat="43.57493" lon="2.31145">
        <ele>223.6437988</ele>
        <time>2015-12-17T14:24:05Z</time>
      </trkpt>
      <trkpt lat="43.5751" lon="2.31154">
        <ele>226.0471191</ele>
        <time>2015-12-17T14:24:11Z</time>
      </trkpt>
      <trkpt lat="43.57527" lon="2.3117">
        <ele>226.0471191</ele>
        <time>2015-12-17T14:24:17Z</time>
      </trkpt>
      <trkpt lat="43.57541" lon="2.31198">
        <ele>235.1796875</ele>
        <time>2015-12-17T14:24:24Z</time>
      </trkpt>
      <trkpt lat="43.57552" lon="2.31219">
        <ele>236.1409912</ele>
        <time>2015-12-17T14:24:28Z</time>
      </trkpt>
      <trkpt lat="43.57575" lon="2.31224">
        <ele>231.3343506</ele>
        <time>2015-12-17T14:24:33Z</time>
      </trkpt>
      <trkpt lat="43.57597" lon="2.31219">
        <ele>231.8149414</ele>
        <time>2015-12-17T14:24:39Z</time>
      </trkpt>
      <trkpt lat="43.57622" lon="2.31213">
        <ele>230.8537598</ele>
        <time>2015-12-17T14:24:47Z</time>
      </trkpt>
      <trkpt lat="43.57639" lon="2.31212">
        <ele>234.2183838</ele>
        <time>2015-12-17T14:24:54Z</time>
      </trkpt>
      <trkpt lat="43.57645" lon="2.31219">
        <ele>229.892334</ele>
        <time>2015-12-17T14:24:59Z</time>
      </trkpt>
      <trkpt lat="43.57646" lon="2.31221">
        <ele>227.9697266</ele>
        <time>2015-12-17T14:25:02Z</time>
      </trkpt>
      <trkpt lat="43.57645" lon="2.31227">
        <ele>227.4891357</ele>
        <time>2015-12-17T14:25:10Z</time>
      </trkpt>
      <trkpt lat="43.57644" lon="2.31228">
        <ele>228.4504395</ele>
        <time>2015-12-17T14:25:12Z</time>
      </trkpt>
      <trkpt lat="43.57635" lon="2.31246">
        <ele>229.4117432</ele>
        <time>2015-12-17T14:25:20Z</time>
      </trkpt>
      <trkpt lat="43.57625" lon="2.31267">
        <ele>229.4117432</ele>
        <time>2015-12-17T14:25:28Z</time>
      </trkpt>
      <trkpt lat="43.57619" lon="2.31287">
        <ele>230.3730469</ele>
        <time>2015-12-17T14:25:35Z</time>
      </trkpt>
      <trkpt lat="43.57615" lon="2.31309">
        <ele>229.892334</ele>
        <time>2015-12-17T14:25:41Z</time>
      </trkpt>
      <trkpt lat="43.57608" lon="2.31351">
        <ele>230.3730469</ele>
        <time>2015-12-17T14:25:49Z</time>
      </trkpt>
      <trkpt lat="43.57603" lon="2.31387">
        <ele>229.4117432</ele>
        <time>2015-12-17T14:25:55Z</time>
      </trkpt>
      <trkpt lat="43.57593" lon="2.3144">
        <ele>228.4504395</ele>
        <time>2015-12-17T14:26:04Z</time>
      </trkpt>
      <trkpt lat="43.57579" lon="2.31487">
        <ele>230.3730469</ele>
        <time>2015-12-17T14:26:13Z</time>
      </trkpt>
      <trkpt lat="43.5757" lon="2.31517">
        <ele>232.2957764</ele>
        <time>2015-12-17T14:26:19Z</time>
      </trkpt>
      <trkpt lat="43.57567" lon="2.31528">
        <ele>232.7764893</ele>
        <time>2015-12-17T14:26:21Z</time>
      </trkpt>
      <trkpt lat="43.57554" lon="2.31566">
        <ele>235.1796875</ele>
        <time>2015-12-17T14:26:29Z</time>
      </trkpt>
      <trkpt lat="43.57539" lon="2.31603">
        <ele>238.0635986</ele>
        <time>2015-12-17T14:26:37Z</time>
      </trkpt>
      <trkpt lat="43.57522" lon="2.3164">
        <ele>240.467041</ele>
        <time>2015-12-17T14:26:46Z</time>
      </trkpt>
      <trkpt lat="43.57505" lon="2.31665">
        <ele>240.9476318</ele>
        <time>2015-12-17T14:26:54Z</time>
      </trkpt>
      <trkpt lat="43.57495" lon="2.31672">
        <ele>240.467041</ele>
        <time>2015-12-17T14:26:59Z</time>
      </trkpt>
      <trkpt lat="43.57485" lon="2.31686">
        <ele>239.5054932</ele>
        <time>2015-12-17T14:27:04Z</time>
      </trkpt>
      <trkpt lat="43.57464" lon="2.31699">
        <ele>236.1409912</ele>
        <time>2015-12-17T14:27:09Z</time>
      </trkpt>
      <trkpt lat="43.57455" lon="2.31703">
        <ele>234.6990967</ele>
        <time>2015-12-17T14:27:11Z</time>
      </trkpt>
      <trkpt lat="43.57447" lon="2.31727">
        <ele>227.9697266</ele>
        <time>2015-12-17T14:27:16Z</time>
      </trkpt>
      <trkpt lat="43.57442" lon="2.31763">
        <ele>224.1245117</ele>
        <time>2015-12-17T14:27:20Z</time>
      </trkpt>
      <trkpt lat="43.57437" lon="2.31783">
        <ele>221.2406006</ele>
        <time>2015-12-17T14:27:23Z</time>
      </trkpt>
      <trkpt lat="43.57436" lon="2.31795">
        <ele>218.3565674</ele>
        <time>2015-12-17T14:27:28Z</time>
      </trkpt>
      <trkpt lat="43.57437" lon="2.31808">
        <ele>216.43396</ele>
        <time>2015-12-17T14:27:31Z</time>
      </trkpt>
      <trkpt lat="43.57443" lon="2.31851">
        <ele>213.0693359</ele>
        <time>2015-12-17T14:27:38Z</time>
      </trkpt>
      <trkpt lat="43.57459" lon="2.31895">
        <ele>210.1854248</ele>
        <time>2015-12-17T14:27:45Z</time>
      </trkpt>
      <trkpt lat="43.57483" lon="2.3195">
        <ele>209.704834</ele>
        <time>2015-12-17T14:27:53Z</time>
      </trkpt>
      <trkpt lat="43.575" lon="2.31999">
        <ele>209.2241211</ele>
        <time>2015-12-17T14:28:00Z</time>
      </trkpt>
      <trkpt lat="43.57501" lon="2.32004">
        <ele>209.2241211</ele>
        <time>2015-12-17T14:28:01Z</time>
      </trkpt>
      <trkpt lat="43.57512" lon="2.32047">
        <ele>210.1854248</ele>
        <time>2015-12-17T14:28:09Z</time>
      </trkpt>
      <trkpt lat="43.57513" lon="2.32053">
        <ele>210.1854248</ele>
        <time>2015-12-17T14:28:10Z</time>
      </trkpt>
      <trkpt lat="43.57515" lon="2.32103">
        <ele>210.6660156</ele>
        <time>2015-12-17T14:28:17Z</time>
      </trkpt>
      <trkpt lat="43.57514" lon="2.32155">
        <ele>211.6274414</ele>
        <time>2015-12-17T14:28:24Z</time>
      </trkpt>
      <trkpt lat="43.57521" lon="2.322">
        <ele>212.588623</ele>
        <time>2015-12-17T14:28:31Z</time>
      </trkpt>
      <trkpt lat="43.57531" lon="2.32239">
        <ele>214.0306396</ele>
        <time>2015-12-17T14:28:37Z</time>
      </trkpt>
      <trkpt lat="43.57541" lon="2.32291">
        <ele>214.9919434</ele>
        <time>2015-12-17T14:28:45Z</time>
      </trkpt>
      <trkpt lat="43.5755" lon="2.32335">
        <ele>215.9532471</ele>
        <time>2015-12-17T14:28:52Z</time>
      </trkpt>
      <trkpt lat="43.57562" lon="2.32387">
        <ele>217.3953857</ele>
        <time>2015-12-17T14:29:00Z</time>
      </trkpt>
      <trkpt lat="43.57573" lon="2.3244">
        <ele>218.3565674</ele>
        <time>2015-12-17T14:29:09Z</time>
      </trkpt>
      <trkpt lat="43.57586" lon="2.32506">
        <ele>220.7598877</ele>
        <time>2015-12-17T14:29:20Z</time>
      </trkpt>
      <trkpt lat="43.57597" lon="2.32575">
        <ele>221.7211914</ele>
        <time>2015-12-17T14:29:31Z</time>
      </trkpt>
      <trkpt lat="43.57605" lon="2.3262">
        <ele>222.6824951</ele>
        <time>2015-12-17T14:29:39Z</time>
      </trkpt>
      <trkpt lat="43.57607" lon="2.32636">
        <ele>223.163208</ele>
        <time>2015-12-17T14:29:42Z</time>
      </trkpt>
      <trkpt lat="43.57611" lon="2.32692">
        <ele>224.1245117</ele>
        <time>2015-12-17T14:29:52Z</time>
      </trkpt>
      <trkpt lat="43.57613" lon="2.32734">
        <ele>224.1245117</ele>
        <time>2015-12-17T14:29:59Z</time>
      </trkpt>
      <trkpt lat="43.57617" lon="2.32792">
        <ele>225.5665283</ele>
        <time>2015-12-17T14:30:09Z</time>
      </trkpt>
      <trkpt lat="43.57618" lon="2.32812">
        <ele>226.527832</ele>
        <time>2015-12-17T14:30:13Z</time>
      </trkpt>
      <trkpt lat="43.57621" lon="2.32853">
        <ele>227.0085449</ele>
        <time>2015-12-17T14:30:21Z</time>
      </trkpt>
      <trkpt lat="43.57629" lon="2.32878">
        <ele>226.527832</ele>
        <time>2015-12-17T14:30:26Z</time>
      </trkpt>
      <trkpt lat="43.57632" lon="2.32899">
        <ele>228.4504395</ele>
        <time>2015-12-17T14:30:31Z</time>
      </trkpt>
      <trkpt lat="43.57637" lon="2.32924">
        <ele>227.0085449</ele>
        <time>2015-12-17T14:30:36Z</time>
      </trkpt>
      <trkpt lat="43.57649" lon="2.3295">
        <ele>223.6437988</ele>
        <time>2015-12-17T14:30:42Z</time>
      </trkpt>
      <trkpt lat="43.57667" lon="2.3297">
        <ele>223.6437988</ele>
        <time>2015-12-17T14:30:48Z</time>
      </trkpt>
      <trkpt lat="43.57691" lon="2.32989">
        <ele>222.6824951</ele>
        <time>2015-12-17T14:30:55Z</time>
      </trkpt>
      <trkpt lat="43.57711" lon="2.33006">
        <ele>222.6824951</ele>
        <time>2015-12-17T14:31:01Z</time>
      </trkpt>
      <trkpt lat="43.57729" lon="2.33021">
        <ele>223.6437988</ele>
        <time>2015-12-17T14:31:06Z</time>
      </trkpt>
      <trkpt lat="43.57737" lon="2.33027">
        <ele>224.1245117</ele>
        <time>2015-12-17T14:31:08Z</time>
      </trkpt>
      <trkpt lat="43.57748" lon="2.33033">
        <ele>225.0859375</ele>
        <time>2015-12-17T14:31:11Z</time>
      </trkpt>
      <trkpt lat="43.57778" lon="2.33042">
        <ele>227.9697266</ele>
        <time>2015-12-17T14:31:18Z</time>
      </trkpt>
      <trkpt lat="43.57785" lon="2.33044">
        <ele>228.4504395</ele>
        <time>2015-12-17T14:31:20Z</time>
      </trkpt>
      <trkpt lat="43.57801" lon="2.33039">
        <ele>230.8537598</ele>
        <time>2015-12-17T14:31:25Z</time>
      </trkpt>
      <trkpt lat="43.57812" lon="2.33029">
        <ele>233.7376709</ele>
        <time>2015-12-17T14:31:30Z</time>
      </trkpt>
      <trkpt lat="43.57832" lon="2.33014">
        <ele>237.5828857</ele>
        <time>2015-12-17T14:31:39Z</time>
      </trkpt>
      <trkpt lat="43.57848" lon="2.33005">
        <ele>240.9476318</ele>
        <time>2015-12-17T14:31:47Z</time>
      </trkpt>
      <trkpt lat="43.57861" lon="2.32999">
        <ele>242.3896484</ele>
        <time>2015-12-17T14:31:54Z</time>
      </trkpt>
      <trkpt lat="43.57868" lon="2.32996">
        <ele>241.9089355</ele>
        <time>2015-12-17T14:32:00Z</time>
      </trkpt>
      <trkpt lat="43.57873" lon="2.32995">
        <ele>242.3896484</ele>
        <time>2015-12-17T14:32:04Z</time>
      </trkpt>
      <trkpt lat="43.5788" lon="2.32992">
        <ele>243.831543</ele>
        <time>2015-12-17T14:32:10Z</time>
      </trkpt>
      <trkpt lat="43.57881" lon="2.32992">
        <ele>244.3122559</ele>
        <time>2015-12-17T14:32:12Z</time>
      </trkpt>
      <trkpt lat="43.57885" lon="2.3299">
        <ele>244.7928467</ele>
        <time>2015-12-17T14:32:15Z</time>
      </trkpt>
      <trkpt lat="43.57891" lon="2.32983">
        <ele>246.2348633</ele>
        <time>2015-12-17T14:32:20Z</time>
      </trkpt>
      <trkpt lat="43.57893" lon="2.32978">
        <ele>248.6381836</ele>
        <time>2015-12-17T14:32:23Z</time>
      </trkpt>
      <trkpt lat="43.57905" lon="2.32966">
        <ele>253.925415</ele>
        <time>2015-12-17T14:32:30Z</time>
      </trkpt>
      <trkpt lat="43.57908" lon="2.32961">
        <ele>255.3673096</ele>
        <time>2015-12-17T14:32:33Z</time>
      </trkpt>
      <trkpt lat="43.57912" lon="2.32939">
        <ele>256.8093262</ele>
        <time>2015-12-17T14:32:40Z</time>
      </trkpt>
      <trkpt lat="43.57913" lon="2.32917">
        <ele>253.925415</ele>
        <time>2015-12-17T14:32:46Z</time>
      </trkpt>
      <trkpt lat="43.57914" lon="2.32892">
        <ele>253.4447021</ele>
        <time>2015-12-17T14:32:53Z</time>
      </trkpt>
      <trkpt lat="43.57911" lon="2.32875">
        <ele>252.4833984</ele>
        <time>2015-12-17T14:32:58Z</time>
      </trkpt>
      <trkpt lat="43.57906" lon="2.32858">
        <ele>253.925415</ele>
        <time>2015-12-17T14:33:04Z</time>
      </trkpt>
      <trkpt lat="43.57893" lon="2.32839">
        <ele>254.4060059</ele>
        <time>2015-12-17T14:33:12Z</time>
      </trkpt>
      <trkpt lat="43.57874" lon="2.32825">
        <ele>259.6933594</ele>
        <time>2015-12-17T14:33:21Z</time>
      </trkpt>
      <trkpt lat="43.57861" lon="2.32822">
        <ele>262.5771484</ele>
        <time>2015-12-17T14:33:27Z</time>
      </trkpt>
      <trkpt lat="43.57848" lon="2.3282">
        <ele>261.1352539</ele>
        <time>2015-12-17T14:33:33Z</time>
      </trkpt>
      <trkpt lat="43.57834" lon="2.32824">
        <ele>263.0578613</ele>
        <time>2015-12-17T14:33:40Z</time>
      </trkpt>
      <trkpt lat="43.57817" lon="2.32833">
        <ele>263.0578613</ele>
        <time>2015-12-17T14:33:47Z</time>
      </trkpt>
      <trkpt lat="43.57804" lon="2.32841">
        <ele>262.0965576</ele>
        <time>2015-12-17T14:33:52Z</time>
      </trkpt>
      <trkpt lat="43.57792" lon="2.32839">
        <ele>262.0965576</ele>
        <time>2015-12-17T14:33:57Z</time>
      </trkpt>
      <trkpt lat="43.57784" lon="2.32827">
        <ele>262.0965576</ele>
        <time>2015-12-17T14:34:01Z</time>
      </trkpt>
      <trkpt lat="43.57772" lon="2.328">
        <ele>260.654541</ele>
        <time>2015-12-17T14:34:07Z</time>
      </trkpt>
      <trkpt lat="43.57764" lon="2.32777">
        <ele>261.6159668</ele>
        <time>2015-12-17T14:34:13Z</time>
      </trkpt>
      <trkpt lat="43.57757" lon="2.32758">
        <ele>262.0965576</ele>
        <time>2015-12-17T14:34:18Z</time>
      </trkpt>
      <trkpt lat="43.5775" lon="2.32735">
        <ele>260.1739502</ele>
        <time>2015-12-17T14:34:24Z</time>
      </trkpt>
      <trkpt lat="43.57746" lon="2.32711">
        <ele>257.2900391</ele>
        <time>2015-12-17T14:34:27Z</time>
      </trkpt>
      <trkpt lat="43.57744" lon="2.32675">
        <ele>255.3673096</ele>
        <time>2015-12-17T14:34:31Z</time>
      </trkpt>
      <trkpt lat="43.57747" lon="2.32652">
        <ele>252.4833984</ele>
        <time>2015-12-17T14:34:34Z</time>
      </trkpt>
      <trkpt lat="43.57756" lon="2.3263">
        <ele>255.8480225</ele>
        <time>2015-12-17T14:34:39Z</time>
      </trkpt>
      <trkpt lat="43.57767" lon="2.32606">
        <ele>256.3287354</ele>
        <time>2015-12-17T14:34:46Z</time>
      </trkpt>
      <trkpt lat="43.57773" lon="2.32594">
        <ele>257.2900391</ele>
        <time>2015-12-17T14:34:51Z</time>
      </trkpt>
      <trkpt lat="43.57778" lon="2.32581">
        <ele>256.8093262</ele>
        <time>2015-12-17T14:34:56Z</time>
      </trkpt>
      <trkpt lat="43.57784" lon="2.32571">
        <ele>257.2900391</ele>
        <time>2015-12-17T14:35:00Z</time>
      </trkpt>
      <trkpt lat="43.57796" lon="2.32571">
        <ele>257.770752</ele>
        <time>2015-12-17T14:35:05Z</time>
      </trkpt>
      <trkpt lat="43.5781" lon="2.32583">
        <ele>257.770752</ele>
        <time>2015-12-17T14:35:11Z</time>
      </trkpt>
      <trkpt lat="43.57834" lon="2.32598">
        <ele>260.1739502</ele>
        <time>2015-12-17T14:35:21Z</time>
      </trkpt>
      <trkpt lat="43.57856" lon="2.32614">
        <ele>263.5385742</ele>
        <time>2015-12-17T14:35:31Z</time>
      </trkpt>
      <trkpt lat="43.57876" lon="2.32628">
        <ele>266.9031982</ele>
        <time>2015-12-17T14:35:40Z</time>
      </trkpt>
      <trkpt lat="43.57894" lon="2.32642">
        <ele>270.2677002</ele>
        <time>2015-12-17T14:35:49Z</time>
      </trkpt>
      <trkpt lat="43.57912" lon="2.32654">
        <ele>272.1904297</ele>
        <time>2015-12-17T14:35:58Z</time>
      </trkpt>
      <trkpt lat="43.57929" lon="2.32664">
        <ele>273.6324463</ele>
        <time>2015-12-17T14:36:06Z</time>
      </trkpt>
      <trkpt lat="43.57948" lon="2.32682">
        <ele>275.5550537</ele>
        <time>2015-12-17T14:36:16Z</time>
      </trkpt>
      <trkpt lat="43.57965" lon="2.32703">
        <ele>277.4776611</ele>
        <time>2015-12-17T14:36:25Z</time>
      </trkpt>
      <trkpt lat="43.57981" lon="2.3272">
        <ele>278.4389648</ele>
        <time>2015-12-17T14:36:33Z</time>
      </trkpt>
      <trkpt lat="43.57999" lon="2.32739">
        <ele>279.4002686</ele>
        <time>2015-12-17T14:36:42Z</time>
      </trkpt>
      <trkpt lat="43.58017" lon="2.32759">
        <ele>280.8424072</ele>
        <time>2015-12-17T14:36:51Z</time>
      </trkpt>
      <trkpt lat="43.5803" lon="2.32776">
        <ele>282.7650146</ele>
        <time>2015-12-17T14:36:58Z</time>
      </trkpt>
      <trkpt lat="43.58047" lon="2.32794">
        <ele>285.1682129</ele>
        <time>2015-12-17T14:37:06Z</time>
      </trkpt>
      <trkpt lat="43.58061" lon="2.32809">
        <ele>287.5714111</ele>
        <time>2015-12-17T14:37:13Z</time>
      </trkpt>
      <trkpt lat="43.58078" lon="2.32827">
        <ele>291.8974609</ele>
        <time>2015-12-17T14:37:22Z</time>
      </trkpt>
      <trkpt lat="43.58091" lon="2.32842">
        <ele>292.8587646</ele>
        <time>2015-12-17T14:37:29Z</time>
      </trkpt>
      <trkpt lat="43.58107" lon="2.32856">
        <ele>292.8587646</ele>
        <time>2015-12-17T14:37:36Z</time>
      </trkpt>
      <trkpt lat="43.58122" lon="2.32867">
        <ele>291.8974609</ele>
        <time>2015-12-17T14:37:42Z</time>
      </trkpt>
      <trkpt lat="43.58148" lon="2.32873">
        <ele>292.3781738</ele>
        <time>2015-12-17T14:37:50Z</time>
      </trkpt>
      <trkpt lat="43.58174" lon="2.32879">
        <ele>292.3781738</ele>
        <time>2015-12-17T14:37:58Z</time>
      </trkpt>
      <trkpt lat="43.58198" lon="2.32883">
        <ele>293.8200684</ele>
        <time>2015-12-17T14:38:05Z</time>
      </trkpt>
      <trkpt lat="43.5822" lon="2.32889">
        <ele>294.3007813</ele>
        <time>2015-12-17T14:38:12Z</time>
      </trkpt>
      <trkpt lat="43.58242" lon="2.32893">
        <ele>296.2235107</ele>
        <time>2015-12-17T14:38:19Z</time>
      </trkpt>
      <trkpt lat="43.58265" lon="2.32898">
        <ele>295.2619629</ele>
        <time>2015-12-17T14:38:26Z</time>
      </trkpt>
      <trkpt lat="43.58288" lon="2.32902">
        <ele>295.7426758</ele>
        <time>2015-12-17T14:38:33Z</time>
      </trkpt>
      <trkpt lat="43.5831" lon="2.32905">
        <ele>297.1846924</ele>
        <time>2015-12-17T14:38:40Z</time>
      </trkpt>
      <trkpt lat="43.58325" lon="2.32909">
        <ele>298.1461182</ele>
        <time>2015-12-17T14:38:46Z</time>
      </trkpt>
      <trkpt lat="43.5834" lon="2.32913">
        <ele>300.5493164</ele>
        <time>2015-12-17T14:38:52Z</time>
      </trkpt>
      <trkpt lat="43.58348" lon="2.32924">
        <ele>301.991333</ele>
        <time>2015-12-17T14:38:57Z</time>
      </trkpt>
      <trkpt lat="43.58353" lon="2.32946">
        <ele>303.4332275</ele>
        <time>2015-12-17T14:39:04Z</time>
      </trkpt>
      <trkpt lat="43.58358" lon="2.32957">
        <ele>302.9525146</ele>
        <time>2015-12-17T14:39:08Z</time>
      </trkpt>
      <trkpt lat="43.58367" lon="2.32958">
        <ele>303.4332275</ele>
        <time>2015-12-17T14:39:13Z</time>
      </trkpt>
      <trkpt lat="43.58371" lon="2.32948">
        <ele>304.8752441</ele>
        <time>2015-12-17T14:39:18Z</time>
      </trkpt>
      <trkpt lat="43.58377" lon="2.32937">
        <ele>307.7592773</ele>
        <time>2015-12-17T14:39:24Z</time>
      </trkpt>
      <trkpt lat="43.58387" lon="2.32926">
        <ele>307.7592773</ele>
        <time>2015-12-17T14:39:31Z</time>
      </trkpt>
      <trkpt lat="43.58396" lon="2.32917">
        <ele>307.7592773</ele>
        <time>2015-12-17T14:39:37Z</time>
      </trkpt>
      <trkpt lat="43.58407" lon="2.32917">
        <ele>309.2011719</ele>
        <time>2015-12-17T14:39:43Z</time>
      </trkpt>
      <trkpt lat="43.58418" lon="2.32923">
        <ele>312.0852051</ele>
        <time>2015-12-17T14:39:49Z</time>
      </trkpt>
      <trkpt lat="43.58431" lon="2.32927">
        <ele>312.5657959</ele>
        <time>2015-12-17T14:39:54Z</time>
      </trkpt>
      <trkpt lat="43.58444" lon="2.32932">
        <ele>313.5272217</ele>
        <time>2015-12-17T14:40:00Z</time>
      </trkpt>
      <trkpt lat="43.58461" lon="2.32935">
        <ele>313.0465088</ele>
        <time>2015-12-17T14:40:06Z</time>
      </trkpt>
      <trkpt lat="43.58475" lon="2.32938">
        <ele>312.0852051</ele>
        <time>2015-12-17T14:40:11Z</time>
      </trkpt>
      <trkpt lat="43.58487" lon="2.32942">
        <ele>312.5657959</ele>
        <time>2015-12-17T14:40:16Z</time>
      </trkpt>
      <trkpt lat="43.58502" lon="2.32945">
        <ele>313.5272217</ele>
        <time>2015-12-17T14:40:21Z</time>
      </trkpt>
      <trkpt lat="43.58524" lon="2.32954">
        <ele>313.0465088</ele>
        <time>2015-12-17T14:40:28Z</time>
      </trkpt>
      <trkpt lat="43.58536" lon="2.32966">
        <ele>311.6044922</ele>
        <time>2015-12-17T14:40:33Z</time>
      </trkpt>
      <trkpt lat="43.58546" lon="2.32981">
        <ele>310.6430664</ele>
        <time>2015-12-17T14:40:38Z</time>
      </trkpt>
      <trkpt lat="43.5856" lon="2.32996">
        <ele>311.6044922</ele>
        <time>2015-12-17T14:40:44Z</time>
      </trkpt>
      <trkpt lat="43.58572" lon="2.33012">
        <ele>310.1624756</ele>
        <time>2015-12-17T14:40:50Z</time>
      </trkpt>
      <trkpt lat="43.58584" lon="2.33031">
        <ele>310.6430664</ele>
        <time>2015-12-17T14:40:57Z</time>
      </trkpt>
      <trkpt lat="43.58597" lon="2.33045">
        <ele>312.5657959</ele>
        <time>2015-12-17T14:41:03Z</time>
      </trkpt>
      <trkpt lat="43.58611" lon="2.33057">
        <ele>313.0465088</ele>
        <time>2015-12-17T14:41:09Z</time>
      </trkpt>
      <trkpt lat="43.58628" lon="2.33077">
        <ele>312.5657959</ele>
        <time>2015-12-17T14:41:17Z</time>
      </trkpt>
      <trkpt lat="43.58632" lon="2.33081">
        <ele>313.0465088</ele>
        <time>2015-12-17T14:41:19Z</time>
      </trkpt>
      <trkpt lat="43.58648" lon="2.33091">
        <ele>312.0852051</ele>
        <time>2015-12-17T14:41:25Z</time>
      </trkpt>
      <trkpt lat="43.58659" lon="2.33103">
        <ele>312.5657959</ele>
        <time>2015-12-17T14:41:30Z</time>
      </trkpt>
      <trkpt lat="43.58663" lon="2.33108">
        <ele>314.4884033</ele>
        <time>2015-12-17T14:41:32Z</time>
      </trkpt>
      <trkpt lat="43.58673" lon="2.33114">
        <ele>316.4110107</ele>
        <time>2015-12-17T14:41:37Z</time>
      </trkpt>
      <trkpt lat="43.58682" lon="2.33122">
        <ele>316.8917236</ele>
        <time>2015-12-17T14:41:41Z</time>
      </trkpt>
      <trkpt lat="43.58688" lon="2.33125">
        <ele>318.3336182</ele>
        <time>2015-12-17T14:41:43Z</time>
      </trkpt>
      <trkpt lat="43.58703" lon="2.33137">
        <ele>322.1789551</ele>
        <time>2015-12-17T14:41:49Z</time>
      </trkpt>
      <trkpt lat="43.58714" lon="2.33151">
        <ele>323.6209717</ele>
        <time>2015-12-17T14:41:54Z</time>
      </trkpt>
      <trkpt lat="43.58727" lon="2.3317">
        <ele>321.6983643</ele>
        <time>2015-12-17T14:42:00Z</time>
      </trkpt>
      <trkpt lat="43.58733" lon="2.3319">
        <ele>318.3336182</ele>
        <time>2015-12-17T14:42:05Z</time>
      </trkpt>
      <trkpt lat="43.58741" lon="2.33207">
        <ele>318.3336182</ele>
        <time>2015-12-17T14:42:10Z</time>
      </trkpt>
      <trkpt lat="43.58746" lon="2.33225">
        <ele>318.3336182</ele>
        <time>2015-12-17T14:42:16Z</time>
      </trkpt>
      <trkpt lat="43.58753" lon="2.33244">
        <ele>317.8530273</ele>
        <time>2015-12-17T14:42:22Z</time>
      </trkpt>
      <trkpt lat="43.58762" lon="2.33265">
        <ele>319.7756348</ele>
        <time>2015-12-17T14:42:30Z</time>
      </trkpt>
      <trkpt lat="43.58768" lon="2.33279">
        <ele>323.6209717</ele>
        <time>2015-12-17T14:42:36Z</time>
      </trkpt>
      <trkpt lat="43.58774" lon="2.33295">
        <ele>325.5435791</ele>
        <time>2015-12-17T14:42:43Z</time>
      </trkpt>
      <trkpt lat="43.58787" lon="2.33322">
        <ele>322.659668</ele>
        <time>2015-12-17T14:42:48Z</time>
      </trkpt>
      <trkpt lat="43.58798" lon="2.33339">
        <ele>319.7756348</ele>
        <time>2015-12-17T14:42:51Z</time>
      </trkpt>
      <trkpt lat="43.58812" lon="2.33364">
        <ele>316.8917236</ele>
        <time>2015-12-17T14:42:55Z</time>
      </trkpt>
      <trkpt lat="43.5883" lon="2.33409">
        <ele>314.0078125</ele>
        <time>2015-12-17T14:43:02Z</time>
      </trkpt>
      <trkpt lat="43.58834" lon="2.33423">
        <ele>312.0852051</ele>
        <time>2015-12-17T14:43:04Z</time>
      </trkpt>
      <trkpt lat="43.58839" lon="2.33438">
        <ele>310.1624756</ele>
        <time>2015-12-17T14:43:06Z</time>
      </trkpt>
      <trkpt lat="43.58854" lon="2.33476">
        <ele>309.2011719</ele>
        <time>2015-12-17T14:43:11Z</time>
      </trkpt>
      <trkpt lat="43.58861" lon="2.33501">
        <ele>309.2011719</ele>
        <time>2015-12-17T14:43:14Z</time>
      </trkpt>
      <trkpt lat="43.5887" lon="2.3353">
        <ele>312.0852051</ele>
        <time>2015-12-17T14:43:18Z</time>
      </trkpt>
      <trkpt lat="43.58873" lon="2.33543">
        <ele>313.5272217</ele>
        <time>2015-12-17T14:43:20Z</time>
      </trkpt>
      <trkpt lat="43.58887" lon="2.3357">
        <ele>322.1789551</ele>
        <time>2015-12-17T14:43:25Z</time>
      </trkpt>
      <trkpt lat="43.58895" lon="2.33584">
        <ele>319.7756348</ele>
        <time>2015-12-17T14:43:27Z</time>
      </trkpt>
      <trkpt lat="43.58912" lon="2.33607">
        <ele>320.7370605</ele>
        <time>2015-12-17T14:43:31Z</time>
      </trkpt>
      <trkpt lat="43.58929" lon="2.33627">
        <ele>320.7370605</ele>
        <time>2015-12-17T14:43:36Z</time>
      </trkpt>
      <trkpt lat="43.5893" lon="2.33638">
        <ele>321.6983643</ele>
        <time>2015-12-17T14:43:39Z</time>
      </trkpt>
      <trkpt lat="43.58923" lon="2.3365">
        <ele>324.1015625</ele>
        <time>2015-12-17T14:43:43Z</time>
      </trkpt>
      <trkpt lat="43.58919" lon="2.33666">
        <ele>325.5435791</ele>
        <time>2015-12-17T14:43:49Z</time>
      </trkpt>
      <trkpt lat="43.58916" lon="2.33667">
        <ele>326.9855957</ele>
        <time>2015-12-17T14:43:53Z</time>
      </trkpt>
      <trkpt lat="43.58908" lon="2.33657">
        <ele>329.388916</ele>
        <time>2015-12-17T14:43:57Z</time>
      </trkpt>
      <trkpt lat="43.5889" lon="2.33649">
        <ele>330.8309326</ele>
        <time>2015-12-17T14:44:02Z</time>
      </trkpt>
      <trkpt lat="43.58872" lon="2.33656">
        <ele>328.9083252</ele>
        <time>2015-12-17T14:44:06Z</time>
      </trkpt>
      <trkpt lat="43.58858" lon="2.33669">
        <ele>326.9855957</ele>
        <time>2015-12-17T14:44:09Z</time>
      </trkpt>
      <trkpt lat="43.58836" lon="2.33716">
        <ele>327.4661865</ele>
        <time>2015-12-17T14:44:14Z</time>
      </trkpt>
      <trkpt lat="43.58823" lon="2.33763">
        <ele>328.9083252</ele>
        <time>2015-12-17T14:44:19Z</time>
      </trkpt>
      <trkpt lat="43.58819" lon="2.33783">
        <ele>329.8695068</ele>
        <time>2015-12-17T14:44:21Z</time>
      </trkpt>
      <trkpt lat="43.58799" lon="2.33807">
        <ele>322.659668</ele>
        <time>2015-12-17T14:44:25Z</time>
      </trkpt>
      <trkpt lat="43.58774" lon="2.33808">
        <ele>319.7756348</ele>
        <time>2015-12-17T14:44:29Z</time>
      </trkpt>
      <trkpt lat="43.5876" lon="2.33824">
        <ele>318.3336182</ele>
        <time>2015-12-17T14:44:32Z</time>
      </trkpt>
      <trkpt lat="43.58732" lon="2.33861">
        <ele>316.8917236</ele>
        <time>2015-12-17T14:44:38Z</time>
      </trkpt>
      <trkpt lat="43.58716" lon="2.33879">
        <ele>314.9691162</ele>
        <time>2015-12-17T14:44:41Z</time>
      </trkpt>
      <trkpt lat="43.5868" lon="2.339">
        <ele>311.6044922</ele>
        <time>2015-12-17T14:44:48Z</time>
      </trkpt>
      <trkpt lat="43.58675" lon="2.33903">
        <ele>311.1237793</ele>
        <time>2015-12-17T14:44:49Z</time>
      </trkpt>
      <trkpt lat="43.58653" lon="2.33896">
        <ele>309.2011719</ele>
        <time>2015-12-17T14:44:54Z</time>
      </trkpt>
      <trkpt lat="43.58649" lon="2.33893">
        <ele>308.720459</ele>
        <time>2015-12-17T14:44:55Z</time>
      </trkpt>
      <trkpt lat="43.58641" lon="2.33884">
        <ele>307.7592773</ele>
        <time>2015-12-17T14:44:57Z</time>
      </trkpt>
      <trkpt lat="43.58625" lon="2.33849">
        <ele>305.8366699</ele>
        <time>2015-12-17T14:45:03Z</time>
      </trkpt>
      <trkpt lat="43.58622" lon="2.33843">
        <ele>305.8366699</ele>
        <time>2015-12-17T14:45:04Z</time>
      </trkpt>
      <trkpt lat="43.58602" lon="2.33822">
        <ele>303.9139404</ele>
        <time>2015-12-17T14:45:09Z</time>
      </trkpt>
      <trkpt lat="43.58586" lon="2.33824">
        <ele>298.1461182</ele>
        <time>2015-12-17T14:45:13Z</time>
      </trkpt>
      <trkpt lat="43.58578" lon="2.33835">
        <ele>294.7813721</ele>
        <time>2015-12-17T14:45:15Z</time>
      </trkpt>
      <trkpt lat="43.58553" lon="2.3388">
        <ele>291.416748</ele>
        <time>2015-12-17T14:45:22Z</time>
      </trkpt>
      <trkpt lat="43.58528" lon="2.33915">
        <ele>290.9361572</ele>
        <time>2015-12-17T14:45:28Z</time>
      </trkpt>
      <trkpt lat="43.58524" lon="2.3392">
        <ele>291.416748</ele>
        <time>2015-12-17T14:45:29Z</time>
      </trkpt>
      <trkpt lat="43.58497" lon="2.33943">
        <ele>290.4555664</ele>
        <time>2015-12-17T14:45:35Z</time>
      </trkpt>
      <trkpt lat="43.58465" lon="2.33975">
        <ele>288.532959</ele>
        <time>2015-12-17T14:45:42Z</time>
      </trkpt>
      <trkpt lat="43.58461" lon="2.33979">
        <ele>288.532959</ele>
        <time>2015-12-17T14:45:43Z</time>
      </trkpt>
      <trkpt lat="43.58438" lon="2.33988">
        <ele>289.4941406</ele>
        <time>2015-12-17T14:45:48Z</time>
      </trkpt>
      <trkpt lat="43.58428" lon="2.33987">
        <ele>287.5714111</ele>
        <time>2015-12-17T14:45:52Z</time>
      </trkpt>
      <trkpt lat="43.58425" lon="2.33982">
        <ele>293.8200684</ele>
        <time>2015-12-17T14:45:56Z</time>
      </trkpt>
      <trkpt lat="43.58422" lon="2.33984">
        <ele>293.8200684</ele>
        <time>2015-12-17T14:46:03Z</time>
      </trkpt>
      <trkpt lat="43.58418" lon="2.33989">
        <ele>293.3393555</ele>
        <time>2015-12-17T14:46:10Z</time>
      </trkpt>
      <trkpt lat="43.58416" lon="2.33992">
        <ele>293.3393555</ele>
        <time>2015-12-17T14:46:11Z</time>
      </trkpt>
      <trkpt lat="43.584" lon="2.34008">
        <ele>295.7426758</ele>
        <time>2015-12-17T14:46:17Z</time>
      </trkpt>
      <trkpt lat="43.58374" lon="2.34032">
        <ele>295.2619629</ele>
        <time>2015-12-17T14:46:24Z</time>
      </trkpt>
      <trkpt lat="43.5837" lon="2.34035">
        <ele>295.2619629</ele>
        <time>2015-12-17T14:46:25Z</time>
      </trkpt>
      <trkpt lat="43.58362" lon="2.3404">
        <ele>294.7813721</ele>
        <time>2015-12-17T14:46:27Z</time>
      </trkpt>
      <trkpt lat="43.58349" lon="2.34049">
        <ele>294.3007813</ele>
        <time>2015-12-17T14:46:30Z</time>
      </trkpt>
      <trkpt lat="43.58331" lon="2.34057">
        <ele>291.8974609</ele>
        <time>2015-12-17T14:46:34Z</time>
      </trkpt>
      <trkpt lat="43.58299" lon="2.34062">
        <ele>290.9361572</ele>
        <time>2015-12-17T14:46:40Z</time>
      </trkpt>
      <trkpt lat="43.58272" lon="2.3408">
        <ele>289.4941406</ele>
        <time>2015-12-17T14:46:46Z</time>
      </trkpt>
      <trkpt lat="43.58252" lon="2.34083">
        <ele>289.0135498</ele>
        <time>2015-12-17T14:46:50Z</time>
      </trkpt>
      <trkpt lat="43.58241" lon="2.34068">
        <ele>288.532959</ele>
        <time>2015-12-17T14:46:53Z</time>
      </trkpt>
      <trkpt lat="43.58222" lon="2.34044">
        <ele>288.532959</ele>
        <time>2015-12-17T14:46:58Z</time>
      </trkpt>
      <trkpt lat="43.58212" lon="2.34044">
        <ele>289.4941406</ele>
        <time>2015-12-17T14:47:00Z</time>
      </trkpt>
      <trkpt lat="43.58195" lon="2.34056">
        <ele>289.9748535</ele>
        <time>2015-12-17T14:47:04Z</time>
      </trkpt>
      <trkpt lat="43.58187" lon="2.34065">
        <ele>289.9748535</ele>
        <time>2015-12-17T14:47:06Z</time>
      </trkpt>
      <trkpt lat="43.58169" lon="2.34069">
        <ele>289.0135498</ele>
        <time>2015-12-17T14:47:10Z</time>
      </trkpt>
      <trkpt lat="43.58161" lon="2.34056">
        <ele>288.532959</ele>
        <time>2015-12-17T14:47:13Z</time>
      </trkpt>
      <trkpt lat="43.58152" lon="2.34031">
        <ele>289.0135498</ele>
        <time>2015-12-17T14:47:17Z</time>
      </trkpt>
      <trkpt lat="43.58125" lon="2.34003">
        <ele>288.0522461</ele>
        <time>2015-12-17T14:47:23Z</time>
      </trkpt>
      <trkpt lat="43.58108" lon="2.34006">
        <ele>285.6488037</ele>
        <time>2015-12-17T14:47:26Z</time>
      </trkpt>
      <trkpt lat="43.58093" lon="2.34022">
        <ele>283.7261963</ele>
        <time>2015-12-17T14:47:30Z</time>
      </trkpt>
      <trkpt lat="43.58083" lon="2.34051">
        <ele>281.8035889</ele>
        <time>2015-12-17T14:47:34Z</time>
      </trkpt>
      <trkpt lat="43.58084" lon="2.34079">
        <ele>280.3616943</ele>
        <time>2015-12-17T14:47:37Z</time>
      </trkpt>
      <trkpt lat="43.5809" lon="2.34117">
        <ele>277.958252</ele>
        <time>2015-12-17T14:47:42Z</time>
      </trkpt>
      <trkpt lat="43.58084" lon="2.34141">
        <ele>277.958252</ele>
        <time>2015-12-17T14:47:46Z</time>
      </trkpt>
      <trkpt lat="43.5807" lon="2.34159">
        <ele>278.4389648</ele>
        <time>2015-12-17T14:47:50Z</time>
      </trkpt>
      <trkpt lat="43.58057" lon="2.34171">
        <ele>278.4389648</ele>
        <time>2015-12-17T14:47:53Z</time>
      </trkpt>
      <trkpt lat="43.58034" lon="2.34177">
        <ele>279.4002686</ele>
        <time>2015-12-17T14:47:59Z</time>
      </trkpt>
      <trkpt lat="43.58027" lon="2.34172">
        <ele>279.8808594</ele>
        <time>2015-12-17T14:48:01Z</time>
      </trkpt>
      <trkpt lat="43.57994" lon="2.3414">
        <ele>279.8808594</ele>
        <time>2015-12-17T14:48:09Z</time>
      </trkpt>
      <trkpt lat="43.57989" lon="2.34136">
        <ele>279.8808594</ele>
        <time>2015-12-17T14:48:10Z</time>
      </trkpt>
      <trkpt lat="43.57965" lon="2.34126">
        <ele>281.322998</ele>
        <time>2015-12-17T14:48:15Z</time>
      </trkpt>
      <trkpt lat="43.57953" lon="2.34122">
        <ele>281.8035889</ele>
        <time>2015-12-17T14:48:19Z</time>
      </trkpt>
      <trkpt lat="43.57939" lon="2.34122">
        <ele>283.2456055</ele>
        <time>2015-12-17T14:48:25Z</time>
      </trkpt>
      <trkpt lat="43.57937" lon="2.34123">
        <ele>283.7261963</ele>
        <time>2015-12-17T14:48:26Z</time>
      </trkpt>
      <trkpt lat="43.57932" lon="2.34133">
        <ele>285.1682129</ele>
        <time>2015-12-17T14:48:30Z</time>
      </trkpt>
      <trkpt lat="43.57933" lon="2.34171">
        <ele>285.6488037</ele>
        <time>2015-12-17T14:48:38Z</time>
      </trkpt>
      <trkpt lat="43.57931" lon="2.342">
        <ele>285.6488037</ele>
        <time>2015-12-17T14:48:44Z</time>
      </trkpt>
      <trkpt lat="43.5793" lon="2.34239">
        <ele>286.1295166</ele>
        <time>2015-12-17T14:48:51Z</time>
      </trkpt>
      <trkpt lat="43.57934" lon="2.34284">
        <ele>286.6102295</ele>
        <time>2015-12-17T14:48:57Z</time>
      </trkpt>
      <trkpt lat="43.57941" lon="2.34328">
        <ele>287.0908203</ele>
        <time>2015-12-17T14:49:03Z</time>
      </trkpt>
      <trkpt lat="43.57949" lon="2.34393">
        <ele>286.1295166</ele>
        <time>2015-12-17T14:49:12Z</time>
      </trkpt>
      <trkpt lat="43.57952" lon="2.34446">
        <ele>285.6488037</ele>
        <time>2015-12-17T14:49:20Z</time>
      </trkpt>
      <trkpt lat="43.57956" lon="2.34493">
        <ele>284.6876221</ele>
        <time>2015-12-17T14:49:28Z</time>
      </trkpt>
      <trkpt lat="43.57962" lon="2.34535">
        <ele>284.2069092</ele>
        <time>2015-12-17T14:49:35Z</time>
      </trkpt>
      <trkpt lat="43.57963" lon="2.34541">
        <ele>284.2069092</ele>
        <time>2015-12-17T14:49:36Z</time>
      </trkpt>
      <trkpt lat="43.57964" lon="2.34552">
        <ele>284.2069092</ele>
        <time>2015-12-17T14:49:38Z</time>
      </trkpt>
      <trkpt lat="43.57957" lon="2.34574">
        <ele>283.7261963</ele>
        <time>2015-12-17T14:49:43Z</time>
      </trkpt>
      <trkpt lat="43.57945" lon="2.34576">
        <ele>283.7261963</ele>
        <time>2015-12-17T14:49:47Z</time>
      </trkpt>
      <trkpt lat="43.57938" lon="2.34572">
        <ele>283.2456055</ele>
        <time>2015-12-17T14:49:49Z</time>
      </trkpt>
      <trkpt lat="43.57916" lon="2.34545">
        <ele>279.8808594</ele>
        <time>2015-12-17T14:49:55Z</time>
      </trkpt>
      <trkpt lat="43.57913" lon="2.34541">
        <ele>279.8808594</ele>
        <time>2015-12-17T14:49:56Z</time>
      </trkpt>
      <trkpt lat="43.57908" lon="2.34533">
        <ele>278.4389648</ele>
        <time>2015-12-17T14:49:58Z</time>
      </trkpt>
      <trkpt lat="43.57899" lon="2.34523">
        <ele>276.5163574</ele>
        <time>2015-12-17T14:50:01Z</time>
      </trkpt>
      <trkpt lat="43.57874" lon="2.34512">
        <ele>271.229126</ele>
        <time>2015-12-17T14:50:07Z</time>
      </trkpt>
      <trkpt lat="43.57853" lon="2.34505">
        <ele>266.9031982</ele>
        <time>2015-12-17T14:50:12Z</time>
      </trkpt>
      <trkpt lat="43.5782" lon="2.34495">
        <ele>258.2513428</ele>
        <time>2015-12-17T14:50:18Z</time>
      </trkpt>
      <trkpt lat="43.57794" lon="2.34487">
        <ele>252.9639893</ele>
        <time>2015-12-17T14:50:22Z</time>
      </trkpt>
      <trkpt lat="43.57787" lon="2.34483">
        <ele>251.0413818</ele>
        <time>2015-12-17T14:50:24Z</time>
      </trkpt>
      <trkpt lat="43.57784" lon="2.34486">
        <ele>252.0028076</ele>
        <time>2015-12-17T14:50:30Z</time>
      </trkpt>
      <trkpt lat="43.57783" lon="2.34488">
        <ele>252.0028076</ele>
        <time>2015-12-17T14:50:32Z</time>
      </trkpt>
      <trkpt lat="43.57783" lon="2.34491">
        <ele>252.4833984</ele>
        <time>2015-12-17T14:50:38Z</time>
      </trkpt>
      <trkpt lat="43.5778" lon="2.34494">
        <ele>253.925415</ele>
        <time>2015-12-17T14:50:42Z</time>
      </trkpt>
      <trkpt lat="43.57778" lon="2.34493">
        <ele>254.4060059</ele>
        <time>2015-12-17T14:50:43Z</time>
      </trkpt>
      <trkpt lat="43.57761" lon="2.34487">
        <ele>253.4447021</ele>
        <time>2015-12-17T14:50:48Z</time>
      </trkpt>
      <trkpt lat="43.57737" lon="2.34483">
        <ele>250.560791</ele>
        <time>2015-12-17T14:50:53Z</time>
      </trkpt>
      <trkpt lat="43.5772" lon="2.3449">
        <ele>250.560791</ele>
        <time>2015-12-17T14:50:57Z</time>
      </trkpt>
      <trkpt lat="43.57705" lon="2.34495">
        <ele>251.5220947</ele>
        <time>2015-12-17T14:51:01Z</time>
      </trkpt>
      <trkpt lat="43.57678" lon="2.34508">
        <ele>253.4447021</ele>
        <time>2015-12-17T14:51:09Z</time>
      </trkpt>
      <trkpt lat="43.57672" lon="2.34517">
        <ele>255.8480225</ele>
        <time>2015-12-17T14:51:13Z</time>
      </trkpt>
      <trkpt lat="43.57672" lon="2.34526">
        <ele>258.7319336</ele>
        <time>2015-12-17T14:51:17Z</time>
      </trkpt>
      <trkpt lat="43.57673" lon="2.34543">
        <ele>260.654541</ele>
        <time>2015-12-17T14:51:24Z</time>
      </trkpt>
      <trkpt lat="43.57677" lon="2.34566">
        <ele>264.4998779</ele>
        <time>2015-12-17T14:51:33Z</time>
      </trkpt>
      <trkpt lat="43.5768" lon="2.34586">
        <ele>268.3450928</ele>
        <time>2015-12-17T14:51:41Z</time>
      </trkpt>
      <trkpt lat="43.57681" lon="2.34603">
        <ele>270.2677002</ele>
        <time>2015-12-17T14:51:47Z</time>
      </trkpt>
      <trkpt lat="43.57684" lon="2.34618">
        <ele>273.6324463</ele>
        <time>2015-12-17T14:51:53Z</time>
      </trkpt>
      <trkpt lat="43.57688" lon="2.34642">
        <ele>273.6324463</ele>
        <time>2015-12-17T14:52:01Z</time>
      </trkpt>
      <trkpt lat="43.57692" lon="2.34658">
        <ele>274.1130371</ele>
        <time>2015-12-17T14:52:08Z</time>
      </trkpt>
      <trkpt lat="43.57696" lon="2.34682">
        <ele>277.4776611</ele>
        <time>2015-12-17T14:52:18Z</time>
      </trkpt>
      <trkpt lat="43.57699" lon="2.34703">
        <ele>277.958252</ele>
        <time>2015-12-17T14:52:26Z</time>
      </trkpt>
      <trkpt lat="43.57702" lon="2.34726">
        <ele>279.4002686</ele>
        <time>2015-12-17T14:52:35Z</time>
      </trkpt>
      <trkpt lat="43.57705" lon="2.34744">
        <ele>281.8035889</ele>
        <time>2015-12-17T14:52:43Z</time>
      </trkpt>
      <trkpt lat="43.57708" lon="2.34766">
        <ele>283.7261963</ele>
        <time>2015-12-17T14:52:53Z</time>
      </trkpt>
      <trkpt lat="43.57711" lon="2.34777">
        <ele>285.1682129</ele>
        <time>2015-12-17T14:52:59Z</time>
      </trkpt>
      <trkpt lat="43.57719" lon="2.34793">
        <ele>287.5714111</ele>
        <time>2015-12-17T14:53:09Z</time>
      </trkpt>
      <trkpt lat="43.57726" lon="2.34809">
        <ele>289.9748535</ele>
        <time>2015-12-17T14:53:18Z</time>
      </trkpt>
      <trkpt lat="43.57732" lon="2.34819">
        <ele>290.9361572</ele>
        <time>2015-12-17T14:53:25Z</time>
      </trkpt>
      <trkpt lat="43.57736" lon="2.34825">
        <ele>291.416748</ele>
        <time>2015-12-17T14:53:29Z</time>
      </trkpt>
      <trkpt lat="43.57739" lon="2.34831">
        <ele>291.8974609</ele>
        <time>2015-12-17T14:53:33Z</time>
      </trkpt>
      <trkpt lat="43.57745" lon="2.3484">
        <ele>292.8587646</ele>
        <time>2015-12-17T14:53:40Z</time>
      </trkpt>
      <trkpt lat="43.57751" lon="2.34851">
        <ele>294.3007813</ele>
        <time>2015-12-17T14:53:47Z</time>
      </trkpt>
      <trkpt lat="43.57758" lon="2.34863">
        <ele>296.2235107</ele>
        <time>2015-12-17T14:53:55Z</time>
      </trkpt>
      <trkpt lat="43.57763" lon="2.34873">
        <ele>297.6654053</ele>
        <time>2015-12-17T14:54:02Z</time>
      </trkpt>
      <trkpt lat="43.57768" lon="2.34887">
        <ele>300.0687256</ele>
        <time>2015-12-17T14:54:10Z</time>
      </trkpt>
      <trkpt lat="43.57771" lon="2.34893">
        <ele>301.0299072</ele>
        <time>2015-12-17T14:54:14Z</time>
      </trkpt>
      <trkpt lat="43.57775" lon="2.34905">
        <ele>302.9525146</ele>
        <time>2015-12-17T14:54:21Z</time>
      </trkpt>
      <trkpt lat="43.57781" lon="2.3492">
        <ele>304.8752441</ele>
        <time>2015-12-17T14:54:29Z</time>
      </trkpt>
      <trkpt lat="43.57791" lon="2.34938">
        <ele>306.3172607</ele>
        <time>2015-12-17T14:54:38Z</time>
      </trkpt>
      <trkpt lat="43.57803" lon="2.34961">
        <ele>307.7592773</ele>
        <time>2015-12-17T14:54:49Z</time>
      </trkpt>
      <trkpt lat="43.57819" lon="2.34988">
        <ele>309.2011719</ele>
        <time>2015-12-17T14:55:01Z</time>
      </trkpt>
      <trkpt lat="43.57832" lon="2.35012">
        <ele>311.1237793</ele>
        <time>2015-12-17T14:55:11Z</time>
      </trkpt>
      <trkpt lat="43.57841" lon="2.35027">
        <ele>312.0852051</ele>
        <time>2015-12-17T14:55:18Z</time>
      </trkpt>
      <trkpt lat="43.57851" lon="2.35047">
        <ele>313.5272217</ele>
        <time>2015-12-17T14:55:26Z</time>
      </trkpt>
      <trkpt lat="43.57861" lon="2.35064">
        <ele>314.9691162</ele>
        <time>2015-12-17T14:55:34Z</time>
      </trkpt>
      <trkpt lat="43.57862" lon="2.35065">
        <ele>314.9691162</ele>
        <time>2015-12-17T14:55:35Z</time>
      </trkpt>
      <trkpt lat="43.57879" lon="2.35072">
        <ele>319.7756348</ele>
        <time>2015-12-17T14:55:43Z</time>
      </trkpt>
      <trkpt lat="43.57892" lon="2.35074">
        <ele>320.7370605</ele>
        <time>2015-12-17T14:55:48Z</time>
      </trkpt>
      <trkpt lat="43.5791" lon="2.35077">
        <ele>319.2950439</ele>
        <time>2015-12-17T14:55:55Z</time>
      </trkpt>
      <trkpt lat="43.57924" lon="2.35078">
        <ele>321.2177734</ele>
        <time>2015-12-17T14:56:01Z</time>
      </trkpt>
      <trkpt lat="43.57937" lon="2.35081">
        <ele>318.3336182</ele>
        <time>2015-12-17T14:56:07Z</time>
      </trkpt>
      <trkpt lat="43.57954" lon="2.35079">
        <ele>319.2950439</ele>
        <time>2015-12-17T14:56:14Z</time>
      </trkpt>
      <trkpt lat="43.57966" lon="2.35075">
        <ele>319.7756348</ele>
        <time>2015-12-17T14:56:20Z</time>
      </trkpt>
      <trkpt lat="43.57978" lon="2.3507">
        <ele>319.7756348</ele>
        <time>2015-12-17T14:56:25Z</time>
      </trkpt>
      <trkpt lat="43.57991" lon="2.35064">
        <ele>319.7756348</ele>
        <time>2015-12-17T14:56:31Z</time>
      </trkpt>
      <trkpt lat="43.58006" lon="2.35058">
        <ele>319.7756348</ele>
        <time>2015-12-17T14:56:38Z</time>
      </trkpt>
      <trkpt lat="43.58025" lon="2.35049">
        <ele>321.6983643</ele>
        <time>2015-12-17T14:56:45Z</time>
      </trkpt>
      <trkpt lat="43.58045" lon="2.35043">
        <ele>321.6983643</ele>
        <time>2015-12-17T14:56:52Z</time>
      </trkpt>
      <trkpt lat="43.58065" lon="2.35035">
        <ele>324.1015625</ele>
        <time>2015-12-17T14:56:59Z</time>
      </trkpt>
      <trkpt lat="43.58087" lon="2.35025">
        <ele>323.1403809</ele>
        <time>2015-12-17T14:57:07Z</time>
      </trkpt>
      <trkpt lat="43.58109" lon="2.35016">
        <ele>322.659668</ele>
        <time>2015-12-17T14:57:14Z</time>
      </trkpt>
      <trkpt lat="43.58126" lon="2.35009">
        <ele>321.2177734</ele>
        <time>2015-12-17T14:57:20Z</time>
      </trkpt>
      <trkpt lat="43.58147" lon="2.34999">
        <ele>319.2950439</ele>
        <time>2015-12-17T14:57:26Z</time>
      </trkpt>
      <trkpt lat="43.58167" lon="2.34998">
        <ele>319.2950439</ele>
        <time>2015-12-17T14:57:31Z</time>
      </trkpt>
      <trkpt lat="43.58175" lon="2.35003">
        <ele>318.8143311</ele>
        <time>2015-12-17T14:57:36Z</time>
      </trkpt>
      <trkpt lat="43.5819" lon="2.3501">
        <ele>317.3724365</ele>
        <time>2015-12-17T14:57:41Z</time>
      </trkpt>
      <trkpt lat="43.58205" lon="2.34999">
        <ele>314.9691162</ele>
        <time>2015-12-17T14:57:45Z</time>
      </trkpt>
      <trkpt lat="43.58213" lon="2.34987">
        <ele>314.0078125</ele>
        <time>2015-12-17T14:57:47Z</time>
      </trkpt>
      <trkpt lat="43.58238" lon="2.34949">
        <ele>311.1237793</ele>
        <time>2015-12-17T14:57:53Z</time>
      </trkpt>
      <trkpt lat="43.58242" lon="2.34944">
        <ele>310.6430664</ele>
        <time>2015-12-17T14:57:54Z</time>
      </trkpt>
      <trkpt lat="43.58258" lon="2.34916">
        <ele>309.6818848</ele>
        <time>2015-12-17T14:57:59Z</time>
      </trkpt>
      <trkpt lat="43.58265" lon="2.34898">
        <ele>310.6430664</ele>
        <time>2015-12-17T14:58:03Z</time>
      </trkpt>
      <trkpt lat="43.58276" lon="2.34875">
        <ele>313.5272217</ele>
        <time>2015-12-17T14:58:10Z</time>
      </trkpt>
      <trkpt lat="43.58288" lon="2.34856">
        <ele>314.4884033</ele>
        <time>2015-12-17T14:58:16Z</time>
      </trkpt>
      <trkpt lat="43.58299" lon="2.34838">
        <ele>315.4498291</ele>
        <time>2015-12-17T14:58:22Z</time>
      </trkpt>
      <trkpt lat="43.58314" lon="2.34818">
        <ele>315.9304199</ele>
        <time>2015-12-17T14:58:30Z</time>
      </trkpt>
      <trkpt lat="43.58332" lon="2.34796">
        <ele>316.4110107</ele>
        <time>2015-12-17T14:58:38Z</time>
      </trkpt>
      <trkpt lat="43.58343" lon="2.34782">
        <ele>317.8530273</ele>
        <time>2015-12-17T14:58:43Z</time>
      </trkpt>
      <trkpt lat="43.58354" lon="2.34769">
        <ele>318.8143311</ele>
        <time>2015-12-17T14:58:48Z</time>
      </trkpt>
      <trkpt lat="43.58367" lon="2.34752">
        <ele>319.7756348</ele>
        <time>2015-12-17T14:58:54Z</time>
      </trkpt>
      <trkpt lat="43.58384" lon="2.34732">
        <ele>319.7756348</ele>
        <time>2015-12-17T14:59:01Z</time>
      </trkpt>
      <trkpt lat="43.584" lon="2.34714">
        <ele>320.7370605</ele>
        <time>2015-12-17T14:59:07Z</time>
      </trkpt>
      <trkpt lat="43.5841" lon="2.34702">
        <ele>322.1789551</ele>
        <time>2015-12-17T14:59:12Z</time>
      </trkpt>
      <trkpt lat="43.58424" lon="2.34686">
        <ele>323.1403809</ele>
        <time>2015-12-17T14:59:18Z</time>
      </trkpt>
      <trkpt lat="43.58437" lon="2.3467">
        <ele>323.6209717</ele>
        <time>2015-12-17T14:59:24Z</time>
      </trkpt>
      <trkpt lat="43.58451" lon="2.3465">
        <ele>321.2177734</ele>
        <time>2015-12-17T14:59:30Z</time>
      </trkpt>
      <trkpt lat="43.58457" lon="2.34632">
        <ele>320.2563477</ele>
        <time>2015-12-17T14:59:34Z</time>
      </trkpt>
      <trkpt lat="43.58461" lon="2.34603">
        <ele>317.8530273</ele>
        <time>2015-12-17T14:59:41Z</time>
      </trkpt>
      <trkpt lat="43.58462" lon="2.34591">
        <ele>316.8917236</ele>
        <time>2015-12-17T14:59:45Z</time>
      </trkpt>
      <trkpt lat="43.58468" lon="2.3457">
        <ele>314.4884033</ele>
        <time>2015-12-17T14:59:51Z</time>
      </trkpt>
      <trkpt lat="43.58476" lon="2.34546">
        <ele>316.4110107</ele>
        <time>2015-12-17T14:59:57Z</time>
      </trkpt>
      <trkpt lat="43.58483" lon="2.34534">
        <ele>314.9691162</ele>
        <time>2015-12-17T15:00:01Z</time>
      </trkpt>
      <trkpt lat="43.58492" lon="2.34517">
        <ele>317.3724365</ele>
        <time>2015-12-17T15:00:07Z</time>
      </trkpt>
      <trkpt lat="43.58501" lon="2.34499">
        <ele>318.8143311</ele>
        <time>2015-12-17T15:00:13Z</time>
      </trkpt>
      <trkpt lat="43.58512" lon="2.34488">
        <ele>318.8143311</ele>
        <time>2015-12-17T15:00:19Z</time>
      </trkpt>
      <trkpt lat="43.58523" lon="2.34483">
        <ele>323.1403809</ele>
        <time>2015-12-17T15:00:25Z</time>
      </trkpt>
      <trkpt lat="43.58532" lon="2.3448">
        <ele>327.9467773</ele>
        <time>2015-12-17T15:00:30Z</time>
      </trkpt>
      <trkpt lat="43.58547" lon="2.34472">
        <ele>329.8695068</ele>
        <time>2015-12-17T15:00:37Z</time>
      </trkpt>
      <trkpt lat="43.58563" lon="2.34463">
        <ele>332.75354</ele>
        <time>2015-12-17T15:00:44Z</time>
      </trkpt>
      <trkpt lat="43.58578" lon="2.34458">
        <ele>333.2341309</ele>
        <time>2015-12-17T15:00:50Z</time>
      </trkpt>
      <trkpt lat="43.58592" lon="2.34458">
        <ele>334.6761475</ele>
        <time>2015-12-17T15:00:55Z</time>
      </trkpt>
      <trkpt lat="43.5861" lon="2.3445">
        <ele>334.1954346</ele>
        <time>2015-12-17T15:01:01Z</time>
      </trkpt>
      <trkpt lat="43.58625" lon="2.34447">
        <ele>335.1567383</ele>
        <time>2015-12-17T15:01:07Z</time>
      </trkpt>
      <trkpt lat="43.58646" lon="2.34442">
        <ele>336.1181641</ele>
        <time>2015-12-17T15:01:15Z</time>
      </trkpt>
      <trkpt lat="43.58665" lon="2.34441">
        <ele>336.598877</ele>
        <time>2015-12-17T15:01:22Z</time>
      </trkpt>
      <trkpt lat="43.58688" lon="2.34444">
        <ele>336.598877</ele>
        <time>2015-12-17T15:01:29Z</time>
      </trkpt>
      <trkpt lat="43.58709" lon="2.34451">
        <ele>338.5214844</ele>
        <time>2015-12-17T15:01:35Z</time>
      </trkpt>
      <trkpt lat="43.58721" lon="2.34465">
        <ele>341.8859863</ele>
        <time>2015-12-17T15:01:40Z</time>
      </trkpt>
      <trkpt lat="43.58723" lon="2.34467">
        <ele>342.84729</ele>
        <time>2015-12-17T15:01:41Z</time>
      </trkpt>
      <trkpt lat="43.58734" lon="2.34465">
        <ele>342.84729</ele>
        <time>2015-12-17T15:01:47Z</time>
      </trkpt>
      <trkpt lat="43.58744" lon="2.34454">
        <ele>342.84729</ele>
        <time>2015-12-17T15:01:52Z</time>
      </trkpt>
      <trkpt lat="43.58754" lon="2.34444">
        <ele>341.8859863</ele>
        <time>2015-12-17T15:01:57Z</time>
      </trkpt>
      <trkpt lat="43.58767" lon="2.34428">
        <ele>343.3278809</ele>
        <time>2015-12-17T15:02:04Z</time>
      </trkpt>
      <trkpt lat="43.58781" lon="2.34423">
        <ele>339.0020752</ele>
        <time>2015-12-17T15:02:10Z</time>
      </trkpt>
      <trkpt lat="43.58793" lon="2.34419">
        <ele>338.5214844</ele>
        <time>2015-12-17T15:02:15Z</time>
      </trkpt>
      <trkpt lat="43.58806" lon="2.34422">
        <ele>342.3666992</ele>
        <time>2015-12-17T15:02:20Z</time>
      </trkpt>
      <trkpt lat="43.58817" lon="2.34429">
        <ele>343.8085938</ele>
        <time>2015-12-17T15:02:25Z</time>
      </trkpt>
      <trkpt lat="43.58831" lon="2.34439">
        <ele>348.1346436</ele>
        <time>2015-12-17T15:02:31Z</time>
      </trkpt>
      <trkpt lat="43.5884" lon="2.34444">
        <ele>351.0184326</ele>
        <time>2015-12-17T15:02:35Z</time>
      </trkpt>
      <trkpt lat="43.58851" lon="2.3445">
        <ele>351.9798584</ele>
        <time>2015-12-17T15:02:40Z</time>
      </trkpt>
      <trkpt lat="43.58866" lon="2.34448">
        <ele>350.5378418</ele>
        <time>2015-12-17T15:02:45Z</time>
      </trkpt>
      <trkpt lat="43.58878" lon="2.34442">
        <ele>352.9411621</ele>
        <time>2015-12-17T15:02:50Z</time>
      </trkpt>
      <trkpt lat="43.58887" lon="2.34433">
        <ele>355.3444824</ele>
        <time>2015-12-17T15:02:55Z</time>
      </trkpt>
      <trkpt lat="43.58901" lon="2.34426">
        <ele>355.8251953</ele>
        <time>2015-12-17T15:03:01Z</time>
      </trkpt>
      <trkpt lat="43.58912" lon="2.34416">
        <ele>355.8251953</ele>
        <time>2015-12-17T15:03:07Z</time>
      </trkpt>
      <trkpt lat="43.58921" lon="2.34402">
        <ele>360.6317139</ele>
        <time>2015-12-17T15:03:13Z</time>
      </trkpt>
      <trkpt lat="43.5893" lon="2.34391">
        <ele>364.4769287</ele>
        <time>2015-12-17T15:03:18Z</time>
      </trkpt>
      <trkpt lat="43.58937" lon="2.34383">
        <ele>362.5543213</ele>
        <time>2015-12-17T15:03:22Z</time>
      </trkpt>
      <trkpt lat="43.58951" lon="2.34366">
        <ele>359.6704102</ele>
        <time>2015-12-17T15:03:28Z</time>
      </trkpt>
      <trkpt lat="43.58963" lon="2.3435">
        <ele>359.6704102</ele>
        <time>2015-12-17T15:03:34Z</time>
      </trkpt>
      <trkpt lat="43.58979" lon="2.34323">
        <ele>356.3057861</ele>
        <time>2015-12-17T15:03:41Z</time>
      </trkpt>
      <trkpt lat="43.58991" lon="2.343">
        <ele>352.4605713</ele>
        <time>2015-12-17T15:03:48Z</time>
      </trkpt>
      <trkpt lat="43.59002" lon="2.34281">
        <ele>351.0184326</ele>
        <time>2015-12-17T15:03:54Z</time>
      </trkpt>
      <trkpt lat="43.59016" lon="2.3426">
        <ele>351.4991455</ele>
        <time>2015-12-17T15:03:59Z</time>
      </trkpt>
      <trkpt lat="43.59027" lon="2.34249">
        <ele>351.4991455</ele>
        <time>2015-12-17T15:04:02Z</time>
      </trkpt>
      <trkpt lat="43.59036" lon="2.3424">
        <ele>355.8251953</ele>
        <time>2015-12-17T15:04:07Z</time>
      </trkpt>
      <trkpt lat="43.59039" lon="2.34228">
        <ele>351.9798584</ele>
        <time>2015-12-17T15:04:11Z</time>
      </trkpt>
      <trkpt lat="43.59042" lon="2.34225">
        <ele>351.0184326</ele>
        <time>2015-12-17T15:04:12Z</time>
      </trkpt>
      <trkpt lat="43.59058" lon="2.34202">
        <ele>347.6539307</ele>
        <time>2015-12-17T15:04:17Z</time>
      </trkpt>
      <trkpt lat="43.59063" lon="2.34193">
        <ele>349.5765381</ele>
        <time>2015-12-17T15:04:21Z</time>
      </trkpt>
      <trkpt lat="43.5906" lon="2.34195">
        <ele>349.0958252</ele>
        <time>2015-12-17T15:04:23Z</time>
      </trkpt>
      <trkpt lat="43.59052" lon="2.34204">
        <ele>349.5765381</ele>
        <time>2015-12-17T15:04:30Z</time>
      </trkpt>
      <trkpt lat="43.59039" lon="2.34224">
        <ele>352.4605713</ele>
        <time>2015-12-17T15:04:37Z</time>
      </trkpt>
      <trkpt lat="43.5903" lon="2.34245">
        <ele>351.9798584</ele>
        <time>2015-12-17T15:04:44Z</time>
      </trkpt>
      <trkpt lat="43.59028" lon="2.34265">
        <ele>353.9025879</ele>
        <time>2015-12-17T15:04:50Z</time>
      </trkpt>
      <trkpt lat="43.59028" lon="2.34283">
        <ele>353.9025879</ele>
        <time>2015-12-17T15:04:54Z</time>
      </trkpt>
      <trkpt lat="43.5902" lon="2.34309">
        <ele>354.8637695</ele>
        <time>2015-12-17T15:04:59Z</time>
      </trkpt>
      <trkpt lat="43.59015" lon="2.34324">
        <ele>355.3444824</ele>
        <time>2015-12-17T15:05:01Z</time>
      </trkpt>
      <trkpt lat="43.59007" lon="2.34351">
        <ele>354.8637695</ele>
        <time>2015-12-17T15:05:04Z</time>
      </trkpt>
      <trkpt lat="43.58995" lon="2.34432">
        <ele>351.9798584</ele>
        <time>2015-12-17T15:05:09Z</time>
      </trkpt>
      <trkpt lat="43.59002" lon="2.34508">
        <ele>349.0958252</ele>
        <time>2015-12-17T15:05:15Z</time>
      </trkpt>
      <trkpt lat="43.59005" lon="2.34558">
        <ele>347.1732178</ele>
        <time>2015-12-17T15:05:20Z</time>
      </trkpt>
      <trkpt lat="43.59006" lon="2.34574">
        <ele>346.692627</ele>
        <time>2015-12-17T15:05:22Z</time>
      </trkpt>
      <trkpt lat="43.59009" lon="2.34612">
        <ele>346.692627</ele>
        <time>2015-12-17T15:05:28Z</time>
      </trkpt>
      <trkpt lat="43.59009" lon="2.34616">
        <ele>347.1732178</ele>
        <time>2015-12-17T15:05:29Z</time>
      </trkpt>
      <trkpt lat="43.59011" lon="2.34637">
        <ele>350.5378418</ele>
        <time>2015-12-17T15:05:35Z</time>
      </trkpt>
      <trkpt lat="43.59007" lon="2.34644">
        <ele>354.8637695</ele>
        <time>2015-12-17T15:05:40Z</time>
      </trkpt>
      <trkpt lat="43.59006" lon="2.34647">
        <ele>355.3444824</ele>
        <time>2015-12-17T15:05:41Z</time>
      </trkpt>
      <trkpt lat="43.59007" lon="2.34673">
        <ele>355.3444824</ele>
        <time>2015-12-17T15:05:46Z</time>
      </trkpt>
      <trkpt lat="43.5901" lon="2.34709">
        <ele>357.7478027</ele>
        <time>2015-12-17T15:05:52Z</time>
      </trkpt>
      <trkpt lat="43.5901" lon="2.34731">
        <ele>357.2670898</ele>
        <time>2015-12-17T15:05:55Z</time>
      </trkpt>
      <trkpt lat="43.59013" lon="2.34758">
        <ele>357.7478027</ele>
        <time>2015-12-17T15:05:59Z</time>
      </trkpt>
      <trkpt lat="43.59018" lon="2.3479">
        <ele>357.7478027</ele>
        <time>2015-12-17T15:06:03Z</time>
      </trkpt>
      <trkpt lat="43.59026" lon="2.34813">
        <ele>351.4991455</ele>
        <time>2015-12-17T15:06:07Z</time>
      </trkpt>
      <trkpt lat="43.59036" lon="2.34851">
        <ele>348.1346436</ele>
        <time>2015-12-17T15:06:14Z</time>
      </trkpt>
      <trkpt lat="43.59036" lon="2.34866">
        <ele>347.1732178</ele>
        <time>2015-12-17T15:06:16Z</time>
      </trkpt>
      <trkpt lat="43.59027" lon="2.34883">
        <ele>344.7700195</ele>
        <time>2015-12-17T15:06:21Z</time>
      </trkpt>
      <trkpt lat="43.59013" lon="2.34895">
        <ele>343.3278809</ele>
        <time>2015-12-17T15:06:25Z</time>
      </trkpt>
      <trkpt lat="43.58993" lon="2.34901">
        <ele>340.4440918</ele>
        <time>2015-12-17T15:06:29Z</time>
      </trkpt>
      <trkpt lat="43.58957" lon="2.34904">
        <ele>336.598877</ele>
        <time>2015-12-17T15:06:35Z</time>
      </trkpt>
      <trkpt lat="43.58949" lon="2.34881">
        <ele>330.3502197</ele>
        <time>2015-12-17T15:06:39Z</time>
      </trkpt>
      <trkpt lat="43.5893" lon="2.34855">
        <ele>322.1789551</ele>
        <time>2015-12-17T15:06:43Z</time>
      </trkpt>
      <trkpt lat="43.58914" lon="2.34827">
        <ele>319.2950439</ele>
        <time>2015-12-17T15:06:47Z</time>
      </trkpt>
      <trkpt lat="43.58898" lon="2.34815">
        <ele>318.3336182</ele>
        <time>2015-12-17T15:06:51Z</time>
      </trkpt>
      <trkpt lat="43.58889" lon="2.3482">
        <ele>312.0852051</ele>
        <time>2015-12-17T15:06:53Z</time>
      </trkpt>
      <trkpt lat="43.5888" lon="2.34828">
        <ele>308.2398682</ele>
        <time>2015-12-17T15:06:55Z</time>
      </trkpt>
      <trkpt lat="43.58864" lon="2.34851">
        <ele>311.1237793</ele>
        <time>2015-12-17T15:06:59Z</time>
      </trkpt>
      <trkpt lat="43.58855" lon="2.34892">
        <ele>315.4498291</ele>
        <time>2015-12-17T15:07:03Z</time>
      </trkpt>
      <trkpt lat="43.58853" lon="2.34901">
        <ele>315.4498291</ele>
        <time>2015-12-17T15:07:04Z</time>
      </trkpt>
      <trkpt lat="43.58841" lon="2.34941">
        <ele>315.4498291</ele>
        <time>2015-12-17T15:07:09Z</time>
      </trkpt>
      <trkpt lat="43.58836" lon="2.34965">
        <ele>314.0078125</ele>
        <time>2015-12-17T15:07:12Z</time>
      </trkpt>
      <trkpt lat="43.58827" lon="2.35">
        <ele>313.0465088</ele>
        <time>2015-12-17T15:07:16Z</time>
      </trkpt>
      <trkpt lat="43.5882" lon="2.3503">
        <ele>313.0465088</ele>
        <time>2015-12-17T15:07:20Z</time>
      </trkpt>
      <trkpt lat="43.58814" lon="2.35057">
        <ele>313.0465088</ele>
        <time>2015-12-17T15:07:25Z</time>
      </trkpt>
      <trkpt lat="43.588" lon="2.35078">
        <ele>310.1624756</ele>
        <time>2015-12-17T15:07:29Z</time>
      </trkpt>
      <trkpt lat="43.58786" lon="2.351">
        <ele>314.4884033</ele>
        <time>2015-12-17T15:07:34Z</time>
      </trkpt>
      <trkpt lat="43.58779" lon="2.3513">
        <ele>306.3172607</ele>
        <time>2015-12-17T15:07:41Z</time>
      </trkpt>
      <trkpt lat="43.58778" lon="2.35134">
        <ele>305.8366699</ele>
        <time>2015-12-17T15:07:42Z</time>
      </trkpt>
      <trkpt lat="43.58771" lon="2.35149">
        <ele>303.4332275</ele>
        <time>2015-12-17T15:07:48Z</time>
      </trkpt>
      <trkpt lat="43.5876" lon="2.3516">
        <ele>301.991333</ele>
        <time>2015-12-17T15:07:53Z</time>
      </trkpt>
      <trkpt lat="43.58747" lon="2.35173">
        <ele>301.0299072</ele>
        <time>2015-12-17T15:07:57Z</time>
      </trkpt>
      <trkpt lat="43.58736" lon="2.35184">
        <ele>300.5493164</ele>
        <time>2015-12-17T15:08:01Z</time>
      </trkpt>
      <trkpt lat="43.58725" lon="2.35207">
        <ele>297.6654053</ele>
        <time>2015-12-17T15:08:06Z</time>
      </trkpt>
      <trkpt lat="43.58715" lon="2.35223">
        <ele>295.7426758</ele>
        <time>2015-12-17T15:08:09Z</time>
      </trkpt>
      <trkpt lat="43.58699" lon="2.35236">
        <ele>290.9361572</ele>
        <time>2015-12-17T15:08:13Z</time>
      </trkpt>
      <trkpt lat="43.58688" lon="2.35264">
        <ele>290.4555664</ele>
        <time>2015-12-17T15:08:18Z</time>
      </trkpt>
      <trkpt lat="43.58681" lon="2.35277">
        <ele>292.8587646</ele>
        <time>2015-12-17T15:08:19Z</time>
      </trkpt>
      <trkpt lat="43.58657" lon="2.35313">
        <ele>301.0299072</ele>
        <time>2015-12-17T15:08:24Z</time>
      </trkpt>
      <trkpt lat="43.58641" lon="2.35336">
        <ele>303.9139404</ele>
        <time>2015-12-17T15:08:26Z</time>
      </trkpt>
      <trkpt lat="43.58632" lon="2.35345">
        <ele>306.7978516</ele>
        <time>2015-12-17T15:08:28Z</time>
      </trkpt>
      <trkpt lat="43.58625" lon="2.35353">
        <ele>312.0852051</ele>
        <time>2015-12-17T15:08:30Z</time>
      </trkpt>
      <trkpt lat="43.58598" lon="2.35377">
        <ele>310.1624756</ele>
        <time>2015-12-17T15:08:36Z</time>
      </trkpt>
      <trkpt lat="43.58584" lon="2.35391">
        <ele>313.0465088</ele>
        <time>2015-12-17T15:08:40Z</time>
      </trkpt>
      <trkpt lat="43.58566" lon="2.35415">
        <ele>314.0078125</ele>
        <time>2015-12-17T15:08:44Z</time>
      </trkpt>
      <trkpt lat="43.58558" lon="2.3543">
        <ele>314.0078125</ele>
        <time>2015-12-17T15:08:48Z</time>
      </trkpt>
      <trkpt lat="43.58551" lon="2.35443">
        <ele>314.0078125</ele>
        <time>2015-12-17T15:08:52Z</time>
      </trkpt>
      <trkpt lat="43.58539" lon="2.3546">
        <ele>302.4719238</ele>
        <time>2015-12-17T15:08:58Z</time>
      </trkpt>
      <trkpt lat="43.5853" lon="2.35468">
        <ele>300.5493164</ele>
        <time>2015-12-17T15:09:02Z</time>
      </trkpt>
      <trkpt lat="43.58518" lon="2.35473">
        <ele>297.1846924</ele>
        <time>2015-12-17T15:09:08Z</time>
      </trkpt>
      <trkpt lat="43.58508" lon="2.3548">
        <ele>291.8974609</ele>
        <time>2015-12-17T15:09:14Z</time>
      </trkpt>
      <trkpt lat="43.58495" lon="2.35485">
        <ele>301.991333</ele>
        <time>2015-12-17T15:09:20Z</time>
      </trkpt>
      <trkpt lat="43.58478" lon="2.35497">
        <ele>307.2785645</ele>
        <time>2015-12-17T15:09:28Z</time>
      </trkpt>
      <trkpt lat="43.58462" lon="2.35511">
        <ele>308.720459</ele>
        <time>2015-12-17T15:09:35Z</time>
      </trkpt>
      <trkpt lat="43.58449" lon="2.35517">
        <ele>304.8752441</ele>
        <time>2015-12-17T15:09:41Z</time>
      </trkpt>
      <trkpt lat="43.58446" lon="2.35519">
        <ele>303.9139404</ele>
        <time>2015-12-17T15:09:43Z</time>
      </trkpt>
      <trkpt lat="43.58441" lon="2.35532">
        <ele>303.4332275</ele>
        <time>2015-12-17T15:09:49Z</time>
      </trkpt>
      <trkpt lat="43.5844" lon="2.35537">
        <ele>303.9139404</ele>
        <time>2015-12-17T15:09:52Z</time>
      </trkpt>
      <trkpt lat="43.58438" lon="2.35546">
        <ele>303.9139404</ele>
        <time>2015-12-17T15:09:56Z</time>
      </trkpt>
      <trkpt lat="43.58438" lon="2.35552">
        <ele>304.8752441</ele>
        <time>2015-12-17T15:09:59Z</time>
      </trkpt>
      <trkpt lat="43.58444" lon="2.35564">
        <ele>309.2011719</ele>
        <time>2015-12-17T15:10:07Z</time>
      </trkpt>
      <trkpt lat="43.58449" lon="2.35563">
        <ele>312.5657959</ele>
        <time>2015-12-17T15:10:12Z</time>
      </trkpt>
      <trkpt lat="43.5845" lon="2.35562">
        <ele>311.6044922</ele>
        <time>2015-12-17T15:10:13Z</time>
      </trkpt>
      <trkpt lat="43.58459" lon="2.35557">
        <ele>314.9691162</ele>
        <time>2015-12-17T15:10:20Z</time>
      </trkpt>
      <trkpt lat="43.58469" lon="2.35555">
        <ele>318.8143311</ele>
        <time>2015-12-17T15:10:27Z</time>
      </trkpt>
      <trkpt lat="43.58477" lon="2.35558">
        <ele>319.2950439</ele>
        <time>2015-12-17T15:10:33Z</time>
      </trkpt>
      <trkpt lat="43.58479" lon="2.35559">
        <ele>319.2950439</ele>
        <time>2015-12-17T15:10:35Z</time>
      </trkpt>
      <trkpt lat="43.5849" lon="2.35566">
        <ele>319.2950439</ele>
        <time>2015-12-17T15:10:43Z</time>
      </trkpt>
      <trkpt lat="43.58499" lon="2.35568">
        <ele>321.6983643</ele>
        <time>2015-12-17T15:10:48Z</time>
      </trkpt>
      <trkpt lat="43.58504" lon="2.35571">
        <ele>324.1015625</ele>
        <time>2015-12-17T15:10:53Z</time>
      </trkpt>
      <trkpt lat="43.58509" lon="2.35572">
        <ele>326.0241699</ele>
        <time>2015-12-17T15:10:56Z</time>
      </trkpt>
      <trkpt lat="43.58511" lon="2.35573">
        <ele>325.5435791</ele>
        <time>2015-12-17T15:10:58Z</time>
      </trkpt>
      <trkpt lat="43.58523" lon="2.35575">
        <ele>327.4661865</ele>
        <time>2015-12-17T15:11:05Z</time>
      </trkpt>
      <trkpt lat="43.58537" lon="2.35578">
        <ele>327.4661865</ele>
        <time>2015-12-17T15:11:12Z</time>
      </trkpt>
      <trkpt lat="43.58547" lon="2.3558">
        <ele>330.3502197</ele>
        <time>2015-12-17T15:11:17Z</time>
      </trkpt>
      <trkpt lat="43.58556" lon="2.35583">
        <ele>332.75354</ele>
        <time>2015-12-17T15:11:22Z</time>
      </trkpt>
      <trkpt lat="43.58562" lon="2.35584">
        <ele>332.2728271</ele>
        <time>2015-12-17T15:11:26Z</time>
      </trkpt>
      <trkpt lat="43.58571" lon="2.35582">
        <ele>331.3115234</ele>
        <time>2015-12-17T15:11:32Z</time>
      </trkpt>
      <trkpt lat="43.58583" lon="2.35577">
        <ele>329.8695068</ele>
        <time>2015-12-17T15:11:39Z</time>
      </trkpt>
      <trkpt lat="43.58585" lon="2.35576">
        <ele>329.388916</ele>
        <time>2015-12-17T15:11:40Z</time>
      </trkpt>
      <trkpt lat="43.58593" lon="2.35578">
        <ele>332.2728271</ele>
        <time>2015-12-17T15:11:45Z</time>
      </trkpt>
      <trkpt lat="43.58598" lon="2.35587">
        <ele>335.1567383</ele>
        <time>2015-12-17T15:11:52Z</time>
      </trkpt>
      <trkpt lat="43.58598" lon="2.35597">
        <ele>338.0407715</ele>
        <time>2015-12-17T15:11:58Z</time>
      </trkpt>
      <trkpt lat="43.58597" lon="2.35605">
        <ele>339.9633789</ele>
        <time>2015-12-17T15:12:04Z</time>
      </trkpt>
      <trkpt lat="43.58597" lon="2.35615">
        <ele>340.9246826</ele>
        <time>2015-12-17T15:12:10Z</time>
      </trkpt>
      <trkpt lat="43.58599" lon="2.35626">
        <ele>342.84729</ele>
        <time>2015-12-17T15:12:17Z</time>
      </trkpt>
      <trkpt lat="43.58605" lon="2.35638">
        <ele>345.7313232</ele>
        <time>2015-12-17T15:12:25Z</time>
      </trkpt>
      <trkpt lat="43.58614" lon="2.35638">
        <ele>346.692627</ele>
        <time>2015-12-17T15:12:31Z</time>
      </trkpt>
      <trkpt lat="43.58626" lon="2.35639">
        <ele>346.692627</ele>
        <time>2015-12-17T15:12:38Z</time>
      </trkpt>
      <trkpt lat="43.58637" lon="2.35642">
        <ele>344.2894287</ele>
        <time>2015-12-17T15:12:44Z</time>
      </trkpt>
      <trkpt lat="43.58648" lon="2.35646">
        <ele>347.6539307</ele>
        <time>2015-12-17T15:12:50Z</time>
      </trkpt>
      <trkpt lat="43.58658" lon="2.35647">
        <ele>349.5765381</ele>
        <time>2015-12-17T15:12:55Z</time>
      </trkpt>
      <trkpt lat="43.58667" lon="2.3565">
        <ele>350.5378418</ele>
        <time>2015-12-17T15:13:00Z</time>
      </trkpt>
      <trkpt lat="43.58681" lon="2.35653">
        <ele>351.0184326</ele>
        <time>2015-12-17T15:13:07Z</time>
      </trkpt>
      <trkpt lat="43.58695" lon="2.35659">
        <ele>355.3444824</ele>
        <time>2015-12-17T15:13:13Z</time>
      </trkpt>
      <trkpt lat="43.58706" lon="2.35662">
        <ele>354.8637695</ele>
        <time>2015-12-17T15:13:19Z</time>
      </trkpt>
      <trkpt lat="43.58724" lon="2.35667">
        <ele>353.421875</ele>
        <time>2015-12-17T15:13:27Z</time>
      </trkpt>
      <trkpt lat="43.58744" lon="2.35672">
        <ele>352.4605713</ele>
        <time>2015-12-17T15:13:34Z</time>
      </trkpt>
      <trkpt lat="43.58764" lon="2.35676">
        <ele>350.057251</ele>
        <time>2015-12-17T15:13:43Z</time>
      </trkpt>
      <trkpt lat="43.58775" lon="2.35681">
        <ele>350.057251</ele>
        <time>2015-12-17T15:13:49Z</time>
      </trkpt>
      <trkpt lat="43.58787" lon="2.35687">
        <ele>351.4991455</ele>
        <time>2015-12-17T15:13:55Z</time>
      </trkpt>
      <trkpt lat="43.58799" lon="2.35695">
        <ele>351.4991455</ele>
        <time>2015-12-17T15:14:02Z</time>
      </trkpt>
      <trkpt lat="43.58801" lon="2.35695">
        <ele>351.0184326</ele>
        <time>2015-12-17T15:14:03Z</time>
      </trkpt>
      <trkpt lat="43.5881" lon="2.35705">
        <ele>351.0184326</ele>
        <time>2015-12-17T15:14:09Z</time>
      </trkpt>
      <trkpt lat="43.58812" lon="2.35707">
        <ele>351.0184326</ele>
        <time>2015-12-17T15:14:10Z</time>
      </trkpt>
      <trkpt lat="43.58823" lon="2.35723">
        <ele>354.8637695</ele>
        <time>2015-12-17T15:14:15Z</time>
      </trkpt>
      <trkpt lat="43.58833" lon="2.35736">
        <ele>358.7089844</ele>
        <time>2015-12-17T15:14:19Z</time>
      </trkpt>
      <trkpt lat="43.58846" lon="2.35758">
        <ele>360.6317139</ele>
        <time>2015-12-17T15:14:24Z</time>
      </trkpt>
      <trkpt lat="43.58853" lon="2.35783">
        <ele>357.2670898</ele>
        <time>2015-12-17T15:14:29Z</time>
      </trkpt>
      <trkpt lat="43.58859" lon="2.35804">
        <ele>359.1896973</ele>
        <time>2015-12-17T15:14:34Z</time>
      </trkpt>
      <trkpt lat="43.58869" lon="2.35831">
        <ele>354.8637695</ele>
        <time>2015-12-17T15:14:40Z</time>
      </trkpt>
      <trkpt lat="43.58879" lon="2.35861">
        <ele>350.5378418</ele>
        <time>2015-12-17T15:14:46Z</time>
      </trkpt>
      <trkpt lat="43.58888" lon="2.35883">
        <ele>345.7313232</ele>
        <time>2015-12-17T15:14:49Z</time>
      </trkpt>
      <trkpt lat="43.58908" lon="2.35882">
        <ele>343.3278809</ele>
        <time>2015-12-17T15:14:53Z</time>
      </trkpt>
      <trkpt lat="43.58928" lon="2.35882">
        <ele>341.8859863</ele>
        <time>2015-12-17T15:14:56Z</time>
      </trkpt>
      <trkpt lat="43.58943" lon="2.35887">
        <ele>341.4052734</ele>
        <time>2015-12-17T15:14:58Z</time>
      </trkpt>
      <trkpt lat="43.58976" lon="2.35904">
        <ele>338.5214844</ele>
        <time>2015-12-17T15:15:03Z</time>
      </trkpt>
      <trkpt lat="43.58987" lon="2.35908">
        <ele>337.5600586</ele>
        <time>2015-12-17T15:15:05Z</time>
      </trkpt>
      <trkpt lat="43.59011" lon="2.35891">
        <ele>332.75354</ele>
        <time>2015-12-17T15:15:09Z</time>
      </trkpt>
      <trkpt lat="43.59016" lon="2.35875">
        <ele>329.8695068</ele>
        <time>2015-12-17T15:15:12Z</time>
      </trkpt>
      <trkpt lat="43.59021" lon="2.35876">
        <ele>330.8309326</ele>
        <time>2015-12-17T15:15:15Z</time>
      </trkpt>
      <trkpt lat="43.59021" lon="2.3589">
        <ele>327.9467773</ele>
        <time>2015-12-17T15:15:19Z</time>
      </trkpt>
      <trkpt lat="43.59012" lon="2.35916">
        <ele>325.5435791</ele>
        <time>2015-12-17T15:15:24Z</time>
      </trkpt>
      <trkpt lat="43.59" lon="2.35933">
        <ele>323.1403809</ele>
        <time>2015-12-17T15:15:28Z</time>
      </trkpt>
      <trkpt lat="43.58977" lon="2.35945">
        <ele>321.2177734</ele>
        <time>2015-12-17T15:15:33Z</time>
      </trkpt>
      <trkpt lat="43.58933" lon="2.35943">
        <ele>316.8917236</ele>
        <time>2015-12-17T15:15:40Z</time>
      </trkpt>
      <trkpt lat="43.58917" lon="2.3594">
        <ele>316.8917236</ele>
        <time>2015-12-17T15:15:43Z</time>
      </trkpt>
      <trkpt lat="43.58901" lon="2.35956">
        <ele>313.0465088</ele>
        <time>2015-12-17T15:15:47Z</time>
      </trkpt>
      <trkpt lat="43.58878" lon="2.35967">
        <ele>312.5657959</ele>
        <time>2015-12-17T15:15:52Z</time>
      </trkpt>
      <trkpt lat="43.58862" lon="2.35972">
        <ele>310.1624756</ele>
        <time>2015-12-17T15:15:56Z</time>
      </trkpt>
      <trkpt lat="43.58853" lon="2.35986">
        <ele>316.8917236</ele>
        <time>2015-12-17T15:16:06Z</time>
      </trkpt>
      <trkpt lat="43.58853" lon="2.35986">
        <ele>317.8530273</ele>
        <time>2015-12-17T15:16:09Z</time>
      </trkpt>
      <trkpt lat="43.5884" lon="2.36002">
        <ele>319.7756348</ele>
        <time>2015-12-17T15:16:18Z</time>
      </trkpt>
      <trkpt lat="43.5884" lon="2.36004">
        <ele>320.7370605</ele>
        <time>2015-12-17T15:16:25Z</time>
      </trkpt>
      <trkpt lat="43.5884" lon="2.36003">
        <ele>320.2563477</ele>
        <time>2015-12-17T15:16:28Z</time>
      </trkpt>
      <trkpt lat="43.58839" lon="2.36">
        <ele>314.9691162</ele>
        <time>2015-12-17T15:16:35Z</time>
      </trkpt>
      <trkpt lat="43.58834" lon="2.36001">
        <ele>310.6430664</ele>
        <time>2015-12-17T15:16:53Z</time>
      </trkpt>
      <trkpt lat="43.58836" lon="2.35998">
        <ele>309.2011719</ele>
        <time>2015-12-17T15:17:04Z</time>
      </trkpt>
      <trkpt lat="43.58833" lon="2.36004">
        <ele>312.5657959</ele>
        <time>2015-12-17T15:17:20Z</time>
      </trkpt>
      <trkpt lat="43.58839" lon="2.36001">
        <ele>315.4498291</ele>
        <time>2015-12-17T15:17:31Z</time>
      </trkpt>
      <trkpt lat="43.5884" lon="2.36002">
        <ele>315.9304199</ele>
        <time>2015-12-17T15:17:38Z</time>
      </trkpt>
      <trkpt lat="43.58845" lon="2.35996">
        <ele>314.4884033</ele>
        <time>2015-12-17T15:17:54Z</time>
      </trkpt>
      <trkpt lat="43.5884" lon="2.36">
        <ele>314.9691162</ele>
        <time>2015-12-17T15:18:01Z</time>
      </trkpt>
      <trkpt lat="43.58843" lon="2.35999">
        <ele>314.4884033</ele>
        <time>2015-12-17T15:18:07Z</time>
      </trkpt>
      <trkpt lat="43.58844" lon="2.35997">
        <ele>313.0465088</ele>
        <time>2015-12-17T15:18:10Z</time>
      </trkpt>
      <trkpt lat="43.58848" lon="2.35996">
        <ele>309.2011719</ele>
        <time>2015-12-17T15:18:15Z</time>
      </trkpt>
      <trkpt lat="43.58858" lon="2.36003">
        <ele>308.720459</ele>
        <time>2015-12-17T15:18:21Z</time>
      </trkpt>
      <trkpt lat="43.58862" lon="2.36003">
        <ele>309.2011719</ele>
        <time>2015-12-17T15:18:23Z</time>
      </trkpt>
      <trkpt lat="43.58877" lon="2.3601">
        <ele>307.2785645</ele>
        <time>2015-12-17T15:18:31Z</time>
      </trkpt>
      <trkpt lat="43.58887" lon="2.36014">
        <ele>308.2398682</ele>
        <time>2015-12-17T15:18:37Z</time>
      </trkpt>
      <trkpt lat="43.58894" lon="2.36022">
        <ele>306.7978516</ele>
        <time>2015-12-17T15:18:42Z</time>
      </trkpt>
      <trkpt lat="43.58907" lon="2.3603">
        <ele>303.4332275</ele>
        <time>2015-12-17T15:18:47Z</time>
      </trkpt>
      <trkpt lat="43.58926" lon="2.36037">
        <ele>306.3172607</ele>
        <time>2015-12-17T15:18:51Z</time>
      </trkpt>
      <trkpt lat="43.58939" lon="2.36042">
        <ele>306.3172607</ele>
        <time>2015-12-17T15:18:56Z</time>
      </trkpt>
      <trkpt lat="43.58951" lon="2.36049">
        <ele>312.0852051</ele>
        <time>2015-12-17T15:19:01Z</time>
      </trkpt>
      <trkpt lat="43.58964" lon="2.36058">
        <ele>312.5657959</ele>
        <time>2015-12-17T15:19:06Z</time>
      </trkpt>
      <trkpt lat="43.58963" lon="2.36061">
        <ele>309.6818848</ele>
        <time>2015-12-17T15:19:08Z</time>
      </trkpt>
      <trkpt lat="43.58953" lon="2.36059">
        <ele>301.0299072</ele>
        <time>2015-12-17T15:19:14Z</time>
      </trkpt>
      <trkpt lat="43.58951" lon="2.36061">
        <ele>298.626709</ele>
        <time>2015-12-17T15:19:16Z</time>
      </trkpt>
      <trkpt lat="43.58951" lon="2.36067">
        <ele>291.8974609</ele>
        <time>2015-12-17T15:19:22Z</time>
      </trkpt>
      <trkpt lat="43.58944" lon="2.36071">
        <ele>289.0135498</ele>
        <time>2015-12-17T15:19:27Z</time>
      </trkpt>
      <trkpt lat="43.58939" lon="2.36072">
        <ele>288.0522461</ele>
        <time>2015-12-17T15:19:29Z</time>
      </trkpt>
      <trkpt lat="43.58929" lon="2.36076">
        <ele>281.322998</ele>
        <time>2015-12-17T15:19:36Z</time>
      </trkpt>
      <trkpt lat="43.58919" lon="2.36081">
        <ele>277.958252</ele>
        <time>2015-12-17T15:19:41Z</time>
      </trkpt>
      <trkpt lat="43.58904" lon="2.36083">
        <ele>277.4776611</ele>
        <time>2015-12-17T15:19:46Z</time>
      </trkpt>
      <trkpt lat="43.58901" lon="2.36084">
        <ele>277.4776611</ele>
        <time>2015-12-17T15:19:47Z</time>
      </trkpt>
      <trkpt lat="43.58893" lon="2.3609">
        <ele>276.0356445</ele>
        <time>2015-12-17T15:19:52Z</time>
      </trkpt>
      <trkpt lat="43.5889" lon="2.3609">
        <ele>275.5550537</ele>
        <time>2015-12-17T15:19:53Z</time>
      </trkpt>
      <trkpt lat="43.58867" lon="2.3609">
        <ele>277.4776611</ele>
        <time>2015-12-17T15:19:59Z</time>
      </trkpt>
      <trkpt lat="43.58843" lon="2.36094">
        <ele>276.5163574</ele>
        <time>2015-12-17T15:20:05Z</time>
      </trkpt>
      <trkpt lat="43.5883" lon="2.36096">
        <ele>276.5163574</ele>
        <time>2015-12-17T15:20:08Z</time>
      </trkpt>
      <trkpt lat="43.58822" lon="2.36098">
        <ele>275.5550537</ele>
        <time>2015-12-17T15:20:10Z</time>
      </trkpt>
      <trkpt lat="43.58803" lon="2.36104">
        <ele>277.958252</ele>
        <time>2015-12-17T15:20:15Z</time>
      </trkpt>
      <trkpt lat="43.58794" lon="2.36105">
        <ele>274.59375</ele>
        <time>2015-12-17T15:20:19Z</time>
      </trkpt>
      <trkpt lat="43.58787" lon="2.36106">
        <ele>276.5163574</ele>
        <time>2015-12-17T15:20:23Z</time>
      </trkpt>
      <trkpt lat="43.58781" lon="2.36101">
        <ele>276.5163574</ele>
        <time>2015-12-17T15:20:27Z</time>
      </trkpt>
      <trkpt lat="43.58781" lon="2.36098">
        <ele>276.9970703</ele>
        <time>2015-12-17T15:20:28Z</time>
      </trkpt>
      <trkpt lat="43.58779" lon="2.36079">
        <ele>278.4389648</ele>
        <time>2015-12-17T15:20:34Z</time>
      </trkpt>
      <trkpt lat="43.58774" lon="2.36065">
        <ele>279.8808594</ele>
        <time>2015-12-17T15:20:39Z</time>
      </trkpt>
      <trkpt lat="43.58763" lon="2.36048">
        <ele>285.1682129</ele>
        <time>2015-12-17T15:20:45Z</time>
      </trkpt>
      <trkpt lat="43.5875" lon="2.36026">
        <ele>298.1461182</ele>
        <time>2015-12-17T15:20:51Z</time>
      </trkpt>
      <trkpt lat="43.58745" lon="2.36012">
        <ele>302.9525146</ele>
        <time>2015-12-17T15:20:55Z</time>
      </trkpt>
      <trkpt lat="43.58736" lon="2.35996">
        <ele>300.0687256</ele>
        <time>2015-12-17T15:21:00Z</time>
      </trkpt>
      <trkpt lat="43.5872" lon="2.35989">
        <ele>301.991333</ele>
        <time>2015-12-17T15:21:05Z</time>
      </trkpt>
      <trkpt lat="43.58705" lon="2.35993">
        <ele>292.8587646</ele>
        <time>2015-12-17T15:21:09Z</time>
      </trkpt>
      <trkpt lat="43.58686" lon="2.35992">
        <ele>293.8200684</ele>
        <time>2015-12-17T15:21:14Z</time>
      </trkpt>
      <trkpt lat="43.58663" lon="2.35995">
        <ele>296.7041016</ele>
        <time>2015-12-17T15:21:20Z</time>
      </trkpt>
      <trkpt lat="43.58644" lon="2.36006">
        <ele>290.9361572</ele>
        <time>2015-12-17T15:21:26Z</time>
      </trkpt>
      <trkpt lat="43.58622" lon="2.3601">
        <ele>291.416748</ele>
        <time>2015-12-17T15:21:32Z</time>
      </trkpt>
      <trkpt lat="43.58598" lon="2.36017">
        <ele>289.9748535</ele>
        <time>2015-12-17T15:21:38Z</time>
      </trkpt>
      <trkpt lat="43.58574" lon="2.36023">
        <ele>287.0908203</ele>
        <time>2015-12-17T15:21:45Z</time>
      </trkpt>
      <trkpt lat="43.58562" lon="2.36024">
        <ele>284.6876221</ele>
        <time>2015-12-17T15:21:49Z</time>
      </trkpt>
      <trkpt lat="43.58547" lon="2.3602">
        <ele>281.322998</ele>
        <time>2015-12-17T15:21:54Z</time>
      </trkpt>
      <trkpt lat="43.58542" lon="2.36017">
        <ele>280.8424072</ele>
        <time>2015-12-17T15:21:58Z</time>
      </trkpt>
      <trkpt lat="43.58539" lon="2.36013">
        <ele>269.3065186</ele>
        <time>2015-12-17T15:22:10Z</time>
      </trkpt>
      <trkpt lat="43.5853" lon="2.36004">
        <ele>273.1518555</ele>
        <time>2015-12-17T15:22:15Z</time>
      </trkpt>
      <trkpt lat="43.58518" lon="2.35994">
        <ele>276.5163574</ele>
        <time>2015-12-17T15:22:20Z</time>
      </trkpt>
      <trkpt lat="43.58503" lon="2.35984">
        <ele>278.9196777</ele>
        <time>2015-12-17T15:22:25Z</time>
      </trkpt>
      <trkpt lat="43.58495" lon="2.35986">
        <ele>278.4389648</ele>
        <time>2015-12-17T15:22:30Z</time>
      </trkpt>
      <trkpt lat="43.58485" lon="2.35993">
        <ele>280.3616943</ele>
        <time>2015-12-17T15:22:36Z</time>
      </trkpt>
      <trkpt lat="43.58479" lon="2.36003">
        <ele>280.8424072</ele>
        <time>2015-12-17T15:22:42Z</time>
      </trkpt>
      <trkpt lat="43.58474" lon="2.36014">
        <ele>282.2843018</ele>
        <time>2015-12-17T15:22:47Z</time>
      </trkpt>
      <trkpt lat="43.58469" lon="2.36024">
        <ele>287.5714111</ele>
        <time>2015-12-17T15:22:53Z</time>
      </trkpt>
      <trkpt lat="43.58464" lon="2.36036">
        <ele>290.9361572</ele>
        <time>2015-12-17T15:22:59Z</time>
      </trkpt>
      <trkpt lat="43.58456" lon="2.3605">
        <ele>292.3781738</ele>
        <time>2015-12-17T15:23:07Z</time>
      </trkpt>
      <trkpt lat="43.58448" lon="2.36068">
        <ele>291.416748</ele>
        <time>2015-12-17T15:23:15Z</time>
      </trkpt>
      <trkpt lat="43.58439" lon="2.36083">
        <ele>294.3007813</ele>
        <time>2015-12-17T15:23:21Z</time>
      </trkpt>
      <trkpt lat="43.58435" lon="2.36092">
        <ele>297.6654053</ele>
        <time>2015-12-17T15:23:26Z</time>
      </trkpt>
      <trkpt lat="43.58432" lon="2.36106">
        <ele>299.1072998</ele>
        <time>2015-12-17T15:23:33Z</time>
      </trkpt>
      <trkpt lat="43.58431" lon="2.36113">
        <ele>300.0687256</ele>
        <time>2015-12-17T15:23:37Z</time>
      </trkpt>
      <trkpt lat="43.5843" lon="2.36128">
        <ele>303.4332275</ele>
        <time>2015-12-17T15:23:45Z</time>
      </trkpt>
      <trkpt lat="43.58428" lon="2.36142">
        <ele>307.2785645</ele>
        <time>2015-12-17T15:23:53Z</time>
      </trkpt>
      <trkpt lat="43.58428" lon="2.36155">
        <ele>310.1624756</ele>
        <time>2015-12-17T15:24:01Z</time>
      </trkpt>
      <trkpt lat="43.58427" lon="2.36166">
        <ele>312.5657959</ele>
        <time>2015-12-17T15:24:07Z</time>
      </trkpt>
      <trkpt lat="43.58424" lon="2.36175">
        <ele>317.3724365</ele>
        <time>2015-12-17T15:24:13Z</time>
      </trkpt>
      <trkpt lat="43.58426" lon="2.36186">
        <ele>318.3336182</ele>
        <time>2015-12-17T15:24:19Z</time>
      </trkpt>
      <trkpt lat="43.58424" lon="2.36197">
        <ele>319.7756348</ele>
        <time>2015-12-17T15:24:25Z</time>
      </trkpt>
      <trkpt lat="43.58424" lon="2.36213">
        <ele>321.6983643</ele>
        <time>2015-12-17T15:24:34Z</time>
      </trkpt>
      <trkpt lat="43.58424" lon="2.36231">
        <ele>320.2563477</ele>
        <time>2015-12-17T15:24:42Z</time>
      </trkpt>
      <trkpt lat="43.58426" lon="2.36244">
        <ele>319.7756348</ele>
        <time>2015-12-17T15:24:49Z</time>
      </trkpt>
      <trkpt lat="43.5843" lon="2.3626">
        <ele>314.9691162</ele>
        <time>2015-12-17T15:24:57Z</time>
      </trkpt>
      <trkpt lat="43.5843" lon="2.36262">
        <ele>316.8917236</ele>
        <time>2015-12-17T15:24:59Z</time>
      </trkpt>
      <trkpt lat="43.58431" lon="2.36268">
        <ele>319.2950439</ele>
        <time>2015-12-17T15:25:03Z</time>
      </trkpt>
      <trkpt lat="43.58428" lon="2.36279">
        <ele>318.8143311</ele>
        <time>2015-12-17T15:25:09Z</time>
      </trkpt>
      <trkpt lat="43.58427" lon="2.36292">
        <ele>321.2177734</ele>
        <time>2015-12-17T15:25:16Z</time>
      </trkpt>
      <trkpt lat="43.58425" lon="2.36298">
        <ele>326.0241699</ele>
        <time>2015-12-17T15:25:20Z</time>
      </trkpt>
      <trkpt lat="43.58423" lon="2.36307">
        <ele>328.4276123</ele>
        <time>2015-12-17T15:25:25Z</time>
      </trkpt>
      <trkpt lat="43.58424" lon="2.36316">
        <ele>329.8695068</ele>
        <time>2015-12-17T15:25:31Z</time>
      </trkpt>
      <trkpt lat="43.58424" lon="2.36321">
        <ele>328.4276123</ele>
        <time>2015-12-17T15:25:33Z</time>
      </trkpt>
      <trkpt lat="43.58423" lon="2.36334">
        <ele>330.3502197</ele>
        <time>2015-12-17T15:25:41Z</time>
      </trkpt>
      <trkpt lat="43.58422" lon="2.36341">
        <ele>330.3502197</ele>
        <time>2015-12-17T15:25:45Z</time>
      </trkpt>
      <trkpt lat="43.5842" lon="2.3636">
        <ele>329.388916</ele>
        <time>2015-12-17T15:25:54Z</time>
      </trkpt>
      <trkpt lat="43.58419" lon="2.36367">
        <ele>328.9083252</ele>
        <time>2015-12-17T15:25:59Z</time>
      </trkpt>
      <trkpt lat="43.58415" lon="2.36376">
        <ele>328.4276123</ele>
        <time>2015-12-17T15:26:05Z</time>
      </trkpt>
      <trkpt lat="43.58409" lon="2.3638">
        <ele>328.4276123</ele>
        <time>2015-12-17T15:26:10Z</time>
      </trkpt>
      <trkpt lat="43.58398" lon="2.36383">
        <ele>328.9083252</ele>
        <time>2015-12-17T15:26:16Z</time>
      </trkpt>
      <trkpt lat="43.58391" lon="2.36374">
        <ele>327.4661865</ele>
        <time>2015-12-17T15:26:21Z</time>
      </trkpt>
      <trkpt lat="43.58385" lon="2.36364">
        <ele>329.8695068</ele>
        <time>2015-12-17T15:26:26Z</time>
      </trkpt>
      <trkpt lat="43.5838" lon="2.36354">
        <ele>333.2341309</ele>
        <time>2015-12-17T15:26:33Z</time>
      </trkpt>
      <trkpt lat="43.58377" lon="2.3635">
        <ele>335.1567383</ele>
        <time>2015-12-17T15:26:37Z</time>
      </trkpt>
      <trkpt lat="43.5837" lon="2.36342">
        <ele>341.4052734</ele>
        <time>2015-12-17T15:26:43Z</time>
      </trkpt>
      <trkpt lat="43.58366" lon="2.36334">
        <ele>343.8085938</ele>
        <time>2015-12-17T15:26:47Z</time>
      </trkpt>
      <trkpt lat="43.58361" lon="2.36322">
        <ele>349.0958252</ele>
        <time>2015-12-17T15:26:53Z</time>
      </trkpt>
      <trkpt lat="43.58355" lon="2.36312">
        <ele>353.9025879</ele>
        <time>2015-12-17T15:26:58Z</time>
      </trkpt>
      <trkpt lat="43.58353" lon="2.36311">
        <ele>347.6539307</ele>
        <time>2015-12-17T15:26:59Z</time>
      </trkpt>
      <trkpt lat="43.58338" lon="2.36304">
        <ele>334.6761475</ele>
        <time>2015-12-17T15:27:07Z</time>
      </trkpt>
      <trkpt lat="43.58327" lon="2.36299">
        <ele>336.598877</ele>
        <time>2015-12-17T15:27:14Z</time>
      </trkpt>
      <trkpt lat="43.58324" lon="2.36298">
        <ele>337.5600586</ele>
        <time>2015-12-17T15:27:16Z</time>
      </trkpt>
      <trkpt lat="43.58313" lon="2.36295">
        <ele>341.4052734</ele>
        <time>2015-12-17T15:27:25Z</time>
      </trkpt>
      <trkpt lat="43.58311" lon="2.36295">
        <ele>343.8085938</ele>
        <time>2015-12-17T15:27:27Z</time>
      </trkpt>
      <trkpt lat="43.583" lon="2.36306">
        <ele>345.2506104</ele>
        <time>2015-12-17T15:27:33Z</time>
      </trkpt>
      <trkpt lat="43.58294" lon="2.36329">
        <ele>342.3666992</ele>
        <time>2015-12-17T15:27:37Z</time>
      </trkpt>
      <trkpt lat="43.58295" lon="2.36348">
        <ele>341.8859863</ele>
        <time>2015-12-17T15:27:40Z</time>
      </trkpt>
      <trkpt lat="43.5829" lon="2.36383">
        <ele>339.482666</ele>
        <time>2015-12-17T15:27:44Z</time>
      </trkpt>
      <trkpt lat="43.5828" lon="2.36434">
        <ele>336.598877</ele>
        <time>2015-12-17T15:27:50Z</time>
      </trkpt>
      <trkpt lat="43.58272" lon="2.36467">
        <ele>333.2341309</ele>
        <time>2015-12-17T15:27:55Z</time>
      </trkpt>
      <trkpt lat="43.58245" lon="2.36522">
        <ele>333.7147217</ele>
        <time>2015-12-17T15:28:03Z</time>
      </trkpt>
      <trkpt lat="43.58237" lon="2.36539">
        <ele>334.6761475</ele>
        <time>2015-12-17T15:28:07Z</time>
      </trkpt>
      <trkpt lat="43.58236" lon="2.36542">
        <ele>334.6761475</ele>
        <time>2015-12-17T15:28:08Z</time>
      </trkpt>
      <trkpt lat="43.58228" lon="2.36561">
        <ele>338.5214844</ele>
        <time>2015-12-17T15:28:15Z</time>
      </trkpt>
      <trkpt lat="43.58227" lon="2.36568">
        <ele>339.9633789</ele>
        <time>2015-12-17T15:28:19Z</time>
      </trkpt>
      <trkpt lat="43.58222" lon="2.36587">
        <ele>342.84729</ele>
        <time>2015-12-17T15:28:25Z</time>
      </trkpt>
      <trkpt lat="43.58221" lon="2.366">
        <ele>346.2120361</ele>
        <time>2015-12-17T15:28:30Z</time>
      </trkpt>
      <trkpt lat="43.5822" lon="2.36609">
        <ele>348.6152344</ele>
        <time>2015-12-17T15:28:33Z</time>
      </trkpt>
      <trkpt lat="43.58221" lon="2.36629">
        <ele>351.0184326</ele>
        <time>2015-12-17T15:28:39Z</time>
      </trkpt>
      <trkpt lat="43.58219" lon="2.36651">
        <ele>352.4605713</ele>
        <time>2015-12-17T15:28:44Z</time>
      </trkpt>
      <trkpt lat="43.58215" lon="2.36674">
        <ele>351.0184326</ele>
        <time>2015-12-17T15:28:49Z</time>
      </trkpt>
      <trkpt lat="43.58205" lon="2.36695">
        <ele>349.5765381</ele>
        <time>2015-12-17T15:28:54Z</time>
      </trkpt>
      <trkpt lat="43.5819" lon="2.36711">
        <ele>347.6539307</ele>
        <time>2015-12-17T15:29:00Z</time>
      </trkpt>
      <trkpt lat="43.5818" lon="2.36722">
        <ele>346.2120361</ele>
        <time>2015-12-17T15:29:05Z</time>
      </trkpt>
      <trkpt lat="43.58171" lon="2.36738">
        <ele>342.84729</ele>
        <time>2015-12-17T15:29:11Z</time>
      </trkpt>
      <trkpt lat="43.58167" lon="2.36749">
        <ele>342.84729</ele>
        <time>2015-12-17T15:29:15Z</time>
      </trkpt>
      <trkpt lat="43.58163" lon="2.36767">
        <ele>342.84729</ele>
        <time>2015-12-17T15:29:20Z</time>
      </trkpt>
      <trkpt lat="43.58163" lon="2.36769">
        <ele>343.3278809</ele>
        <time>2015-12-17T15:29:21Z</time>
      </trkpt>
      <trkpt lat="43.58157" lon="2.36801">
        <ele>343.8085938</ele>
        <time>2015-12-17T15:29:27Z</time>
      </trkpt>
      <trkpt lat="43.58155" lon="2.36822">
        <ele>341.8859863</ele>
        <time>2015-12-17T15:29:31Z</time>
      </trkpt>
      <trkpt lat="43.58153" lon="2.36833">
        <ele>341.8859863</ele>
        <time>2015-12-17T15:29:33Z</time>
      </trkpt>
      <trkpt lat="43.58148" lon="2.36863">
        <ele>341.8859863</ele>
        <time>2015-12-17T15:29:40Z</time>
      </trkpt>
      <trkpt lat="43.58142" lon="2.36882">
        <ele>342.84729</ele>
        <time>2015-12-17T15:29:45Z</time>
      </trkpt>
      <trkpt lat="43.58135" lon="2.36899">
        <ele>342.84729</ele>
        <time>2015-12-17T15:29:50Z</time>
      </trkpt>
      <trkpt lat="43.5813" lon="2.36915">
        <ele>342.84729</ele>
        <time>2015-12-17T15:29:55Z</time>
      </trkpt>
      <trkpt lat="43.58124" lon="2.3694">
        <ele>340.9246826</ele>
        <time>2015-12-17T15:30:01Z</time>
      </trkpt>
      <trkpt lat="43.58124" lon="2.3695">
        <ele>339.0020752</ele>
        <time>2015-12-17T15:30:03Z</time>
      </trkpt>
      <trkpt lat="43.58111" lon="2.36971">
        <ele>338.0407715</ele>
        <time>2015-12-17T15:30:07Z</time>
      </trkpt>
      <trkpt lat="43.58092" lon="2.36976">
        <ele>338.0407715</ele>
        <time>2015-12-17T15:30:10Z</time>
      </trkpt>
      <trkpt lat="43.58086" lon="2.36959">
        <ele>337.5600586</ele>
        <time>2015-12-17T15:30:13Z</time>
      </trkpt>
      <trkpt lat="43.58082" lon="2.36937">
        <ele>336.598877</ele>
        <time>2015-12-17T15:30:16Z</time>
      </trkpt>
      <trkpt lat="43.5807" lon="2.36904">
        <ele>333.7147217</ele>
        <time>2015-12-17T15:30:20Z</time>
      </trkpt>
      <trkpt lat="43.58047" lon="2.36893">
        <ele>332.2728271</ele>
        <time>2015-12-17T15:30:23Z</time>
      </trkpt>
      <trkpt lat="43.58037" lon="2.36892">
        <ele>331.3115234</ele>
        <time>2015-12-17T15:30:24Z</time>
      </trkpt>
      <trkpt lat="43.57997" lon="2.36869">
        <ele>326.9855957</ele>
        <time>2015-12-17T15:30:29Z</time>
      </trkpt>
      <trkpt lat="43.57962" lon="2.36825">
        <ele>322.1789551</ele>
        <time>2015-12-17T15:30:34Z</time>
      </trkpt>
      <trkpt lat="43.57943" lon="2.36759">
        <ele>320.2563477</ele>
        <time>2015-12-17T15:30:39Z</time>
      </trkpt>
      <trkpt lat="43.57943" lon="2.36709">
        <ele>319.7756348</ele>
        <time>2015-12-17T15:30:43Z</time>
      </trkpt>
      <trkpt lat="43.57932" lon="2.3667">
        <ele>319.7756348</ele>
        <time>2015-12-17T15:30:46Z</time>
      </trkpt>
      <trkpt lat="43.5791" lon="2.36625">
        <ele>315.9304199</ele>
        <time>2015-12-17T15:30:50Z</time>
      </trkpt>
      <trkpt lat="43.57903" lon="2.36604">
        <ele>314.4884033</ele>
        <time>2015-12-17T15:30:52Z</time>
      </trkpt>
      <trkpt lat="43.57886" lon="2.36564">
        <ele>312.0852051</ele>
        <time>2015-12-17T15:30:57Z</time>
      </trkpt>
      <trkpt lat="43.57864" lon="2.36532">
        <ele>308.720459</ele>
        <time>2015-12-17T15:31:03Z</time>
      </trkpt>
      <trkpt lat="43.57857" lon="2.36519">
        <ele>309.2011719</ele>
        <time>2015-12-17T15:31:05Z</time>
      </trkpt>
      <trkpt lat="43.57843" lon="2.36506">
        <ele>313.0465088</ele>
        <time>2015-12-17T15:31:09Z</time>
      </trkpt>
      <trkpt lat="43.57839" lon="2.36506">
        <ele>314.4884033</ele>
        <time>2015-12-17T15:31:10Z</time>
      </trkpt>
      <trkpt lat="43.57825" lon="2.36512">
        <ele>317.8530273</ele>
        <time>2015-12-17T15:31:16Z</time>
      </trkpt>
      <trkpt lat="43.57801" lon="2.36532">
        <ele>322.659668</ele>
        <time>2015-12-17T15:31:22Z</time>
      </trkpt>
      <trkpt lat="43.57779" lon="2.36547">
        <ele>323.6209717</ele>
        <time>2015-12-17T15:31:28Z</time>
      </trkpt>
      <trkpt lat="43.57756" lon="2.36563">
        <ele>326.5048828</ele>
        <time>2015-12-17T15:31:35Z</time>
      </trkpt>
      <trkpt lat="43.57739" lon="2.36575">
        <ele>328.4276123</ele>
        <time>2015-12-17T15:31:40Z</time>
      </trkpt>
      <trkpt lat="43.57722" lon="2.36587">
        <ele>331.3115234</ele>
        <time>2015-12-17T15:31:47Z</time>
      </trkpt>
      <trkpt lat="43.57716" lon="2.36592">
        <ele>331.7921143</ele>
        <time>2015-12-17T15:31:51Z</time>
      </trkpt>
      <trkpt lat="43.57702" lon="2.36603">
        <ele>334.1954346</ele>
        <time>2015-12-17T15:31:56Z</time>
      </trkpt>
      <trkpt lat="43.57685" lon="2.36615">
        <ele>337.0794678</ele>
        <time>2015-12-17T15:32:02Z</time>
      </trkpt>
      <trkpt lat="43.57673" lon="2.36619">
        <ele>333.7147217</ele>
        <time>2015-12-17T15:32:07Z</time>
      </trkpt>
      <trkpt lat="43.57662" lon="2.36628">
        <ele>333.2341309</ele>
        <time>2015-12-17T15:32:12Z</time>
      </trkpt>
      <trkpt lat="43.57651" lon="2.36638">
        <ele>333.7147217</ele>
        <time>2015-12-17T15:32:18Z</time>
      </trkpt>
      <trkpt lat="43.57637" lon="2.36652">
        <ele>335.6373291</ele>
        <time>2015-12-17T15:32:24Z</time>
      </trkpt>
      <trkpt lat="43.57626" lon="2.36666">
        <ele>335.6373291</ele>
        <time>2015-12-17T15:32:29Z</time>
      </trkpt>
      <trkpt lat="43.57615" lon="2.36678">
        <ele>337.5600586</ele>
        <time>2015-12-17T15:32:35Z</time>
      </trkpt>
      <trkpt lat="43.57602" lon="2.36693">
        <ele>340.9246826</ele>
        <time>2015-12-17T15:32:41Z</time>
      </trkpt>
      <trkpt lat="43.57588" lon="2.36704">
        <ele>342.84729</ele>
        <time>2015-12-17T15:32:47Z</time>
      </trkpt>
      <trkpt lat="43.57581" lon="2.36709">
        <ele>343.3278809</ele>
        <time>2015-12-17T15:32:51Z</time>
      </trkpt>
      <trkpt lat="43.5757" lon="2.36718">
        <ele>345.2506104</ele>
        <time>2015-12-17T15:32:56Z</time>
      </trkpt>
      <trkpt lat="43.57559" lon="2.36725">
        <ele>343.3278809</ele>
        <time>2015-12-17T15:33:02Z</time>
      </trkpt>
      <trkpt lat="43.57546" lon="2.3673">
        <ele>342.3666992</ele>
        <time>2015-12-17T15:33:08Z</time>
      </trkpt>
      <trkpt lat="43.5753" lon="2.3673">
        <ele>344.7700195</ele>
        <time>2015-12-17T15:33:14Z</time>
      </trkpt>
      <trkpt lat="43.57511" lon="2.36728">
        <ele>339.9633789</ele>
        <time>2015-12-17T15:33:20Z</time>
      </trkpt>
      <trkpt lat="43.57493" lon="2.36719">
        <ele>337.0794678</ele>
        <time>2015-12-17T15:33:27Z</time>
      </trkpt>
      <trkpt lat="43.57476" lon="2.36709">
        <ele>335.1567383</ele>
        <time>2015-12-17T15:33:33Z</time>
      </trkpt>
      <trkpt lat="43.5746" lon="2.36696">
        <ele>332.75354</ele>
        <time>2015-12-17T15:33:37Z</time>
      </trkpt>
      <trkpt lat="43.57451" lon="2.36689">
        <ele>331.3115234</ele>
        <time>2015-12-17T15:33:39Z</time>
      </trkpt>
      <trkpt lat="43.57426" lon="2.36681">
        <ele>329.8695068</ele>
        <time>2015-12-17T15:33:44Z</time>
      </trkpt>
      <trkpt lat="43.57411" lon="2.36678">
        <ele>329.388916</ele>
        <time>2015-12-17T15:33:47Z</time>
      </trkpt>
      <trkpt lat="43.57388" lon="2.3667">
        <ele>325.5435791</ele>
        <time>2015-12-17T15:33:51Z</time>
      </trkpt>
      <trkpt lat="43.57361" lon="2.36638">
        <ele>322.1789551</ele>
        <time>2015-12-17T15:33:56Z</time>
      </trkpt>
      <trkpt lat="43.57345" lon="2.36616">
        <ele>319.7756348</ele>
        <time>2015-12-17T15:33:59Z</time>
      </trkpt>
      <trkpt lat="43.57317" lon="2.36575">
        <ele>317.8530273</ele>
        <time>2015-12-17T15:34:04Z</time>
      </trkpt>
      <trkpt lat="43.57292" lon="2.36534">
        <ele>312.5657959</ele>
        <time>2015-12-17T15:34:09Z</time>
      </trkpt>
      <trkpt lat="43.57276" lon="2.36507">
        <ele>309.6818848</ele>
        <time>2015-12-17T15:34:13Z</time>
      </trkpt>
      <trkpt lat="43.57255" lon="2.36478">
        <ele>304.8752441</ele>
        <time>2015-12-17T15:34:18Z</time>
      </trkpt>
      <trkpt lat="43.57248" lon="2.36473">
        <ele>303.9139404</ele>
        <time>2015-12-17T15:34:19Z</time>
      </trkpt>
      <trkpt lat="43.57236" lon="2.36466">
        <ele>301.991333</ele>
        <time>2015-12-17T15:34:21Z</time>
      </trkpt>
      <trkpt lat="43.57218" lon="2.36456">
        <ele>297.1846924</ele>
        <time>2015-12-17T15:34:25Z</time>
      </trkpt>
      <trkpt lat="43.57204" lon="2.36453">
        <ele>289.9748535</ele>
        <time>2015-12-17T15:34:28Z</time>
      </trkpt>
      <trkpt lat="43.57174" lon="2.36446">
        <ele>278.9196777</ele>
        <time>2015-12-17T15:34:34Z</time>
      </trkpt>
      <trkpt lat="43.57165" lon="2.36443">
        <ele>275.5550537</ele>
        <time>2015-12-17T15:34:36Z</time>
      </trkpt>
      <trkpt lat="43.57152" lon="2.36437">
        <ele>273.1518555</ele>
        <time>2015-12-17T15:34:40Z</time>
      </trkpt>
      <trkpt lat="43.5714" lon="2.36431">
        <ele>267.864502</ele>
        <time>2015-12-17T15:34:45Z</time>
      </trkpt>
      <trkpt lat="43.57139" lon="2.3643">
        <ele>266.4224854</ele>
        <time>2015-12-17T15:34:46Z</time>
      </trkpt>
      <trkpt lat="43.57123" lon="2.36423">
        <ele>265.9418945</ele>
        <time>2015-12-17T15:34:53Z</time>
      </trkpt>
      <trkpt lat="43.57112" lon="2.3642">
        <ele>264.0192871</ele>
        <time>2015-12-17T15:34:57Z</time>
      </trkpt>
      <trkpt lat="43.57097" lon="2.36415">
        <ele>256.3287354</ele>
        <time>2015-12-17T15:35:03Z</time>
      </trkpt>
      <trkpt lat="43.57092" lon="2.36413">
        <ele>252.9639893</ele>
        <time>2015-12-17T15:35:05Z</time>
      </trkpt>
      <trkpt lat="43.57087" lon="2.36413">
        <ele>252.0028076</ele>
        <time>2015-12-17T15:35:07Z</time>
      </trkpt>
      <trkpt lat="43.57075" lon="2.36405">
        <ele>247.1960449</ele>
        <time>2015-12-17T15:35:13Z</time>
      </trkpt>
      <trkpt lat="43.57072" lon="2.36403">
        <ele>244.7928467</ele>
        <time>2015-12-17T15:35:15Z</time>
      </trkpt>
      <trkpt lat="43.57064" lon="2.36395">
        <ele>239.0249023</ele>
        <time>2015-12-17T15:35:21Z</time>
      </trkpt>
      <trkpt lat="43.57057" lon="2.36391">
        <ele>235.1796875</ele>
        <time>2015-12-17T15:35:28Z</time>
      </trkpt>
      <trkpt lat="43.57056" lon="2.36391">
        <ele>238.5443115</ele>
        <time>2015-12-17T15:35:37Z</time>
      </trkpt>
      <trkpt lat="43.57053" lon="2.36388">
        <ele>241.4282227</ele>
        <time>2015-12-17T15:35:48Z</time>
      </trkpt>
      <trkpt lat="43.57051" lon="2.36384">
        <ele>239.9862061</ele>
        <time>2015-12-17T15:35:54Z</time>
      </trkpt>
      <trkpt lat="43.57047" lon="2.36375">
        <ele>238.0635986</ele>
        <time>2015-12-17T15:35:59Z</time>
      </trkpt>
      <trkpt lat="43.57041" lon="2.36363">
        <ele>235.1796875</ele>
        <time>2015-12-17T15:36:05Z</time>
      </trkpt>
      <trkpt lat="43.57036" lon="2.36357">
        <ele>233.2570801</ele>
        <time>2015-12-17T15:36:10Z</time>
      </trkpt>
      <trkpt lat="43.57027" lon="2.36347">
        <ele>238.0635986</ele>
        <time>2015-12-17T15:36:14Z</time>
      </trkpt>
      <trkpt lat="43.57007" lon="2.36336">
        <ele>241.4282227</ele>
        <time>2015-12-17T15:36:19Z</time>
      </trkpt>
      <trkpt lat="43.56991" lon="2.36322">
        <ele>244.3122559</ele>
        <time>2015-12-17T15:36:25Z</time>
      </trkpt>
      <trkpt lat="43.56975" lon="2.36318">
        <ele>245.2734375</ele>
        <time>2015-12-17T15:36:30Z</time>
      </trkpt>
      <trkpt lat="43.56956" lon="2.36309">
        <ele>244.7928467</ele>
        <time>2015-12-17T15:36:34Z</time>
      </trkpt>
      <trkpt lat="43.56929" lon="2.36296">
        <ele>242.3896484</ele>
        <time>2015-12-17T15:36:38Z</time>
      </trkpt>
      <trkpt lat="43.56893" lon="2.36291">
        <ele>240.467041</ele>
        <time>2015-12-17T15:36:43Z</time>
      </trkpt>
      <trkpt lat="43.56854" lon="2.36286">
        <ele>231.8149414</ele>
        <time>2015-12-17T15:36:49Z</time>
      </trkpt>
      <trkpt lat="43.56847" lon="2.36285">
        <ele>231.8149414</ele>
        <time>2015-12-17T15:36:50Z</time>
      </trkpt>
      <trkpt lat="43.56822" lon="2.36292">
        <ele>228.9311523</ele>
        <time>2015-12-17T15:36:55Z</time>
      </trkpt>
      <trkpt lat="43.56811" lon="2.363">
        <ele>225.5665283</ele>
        <time>2015-12-17T15:36:58Z</time>
      </trkpt>
      <trkpt lat="43.56791" lon="2.36302">
        <ele>225.0859375</ele>
        <time>2015-12-17T15:37:03Z</time>
      </trkpt>
      <trkpt lat="43.56783" lon="2.36309">
        <ele>227.0085449</ele>
        <time>2015-12-17T15:37:07Z</time>
      </trkpt>
      <trkpt lat="43.56781" lon="2.3632">
        <ele>227.0085449</ele>
        <time>2015-12-17T15:37:10Z</time>
      </trkpt>
      <trkpt lat="43.56779" lon="2.3633">
        <ele>227.4891357</ele>
        <time>2015-12-17T15:37:13Z</time>
      </trkpt>
      <trkpt lat="43.56774" lon="2.3633">
        <ele>231.8149414</ele>
        <time>2015-12-17T15:37:18Z</time>
      </trkpt>
      <trkpt lat="43.56774" lon="2.36327">
        <ele>231.8149414</ele>
        <time>2015-12-17T15:37:20Z</time>
      </trkpt>
      <trkpt lat="43.56777" lon="2.36298">
        <ele>233.7376709</ele>
        <time>2015-12-17T15:37:27Z</time>
      </trkpt>
      <trkpt lat="43.56784" lon="2.36277">
        <ele>234.6990967</ele>
        <time>2015-12-17T15:37:32Z</time>
      </trkpt>
      <trkpt lat="43.56792" lon="2.3626">
        <ele>235.6602783</ele>
        <time>2015-12-17T15:37:38Z</time>
      </trkpt>
      <trkpt lat="43.56799" lon="2.36244">
        <ele>238.0635986</ele>
        <time>2015-12-17T15:37:44Z</time>
      </trkpt>
      <trkpt lat="43.56807" lon="2.36215">
        <ele>242.8702393</ele>
        <time>2015-12-17T15:37:52Z</time>
      </trkpt>
      <trkpt lat="43.56812" lon="2.36185">
        <ele>249.1187744</ele>
        <time>2015-12-17T15:38:00Z</time>
      </trkpt>
      <trkpt lat="43.56814" lon="2.36169">
        <ele>248.1575928</ele>
        <time>2015-12-17T15:38:05Z</time>
      </trkpt>
      <trkpt lat="43.56824" lon="2.36144">
        <ele>245.7541504</ele>
        <time>2015-12-17T15:38:12Z</time>
      </trkpt>
      <trkpt lat="43.56829" lon="2.36123">
        <ele>240.467041</ele>
        <time>2015-12-17T15:38:18Z</time>
      </trkpt>
      <trkpt lat="43.56823" lon="2.36101">
        <ele>234.6990967</ele>
        <time>2015-12-17T15:38:24Z</time>
      </trkpt>
      <trkpt lat="43.56814" lon="2.36071">
        <ele>239.0249023</ele>
        <time>2015-12-17T15:38:30Z</time>
      </trkpt>
      <trkpt lat="43.56819" lon="2.36048">
        <ele>242.8702393</ele>
        <time>2015-12-17T15:38:35Z</time>
      </trkpt>
      <trkpt lat="43.56834" lon="2.36024">
        <ele>243.831543</ele>
        <time>2015-12-17T15:38:42Z</time>
      </trkpt>
      <trkpt lat="43.56851" lon="2.3599">
        <ele>246.2348633</ele>
        <time>2015-12-17T15:38:51Z</time>
      </trkpt>
      <trkpt lat="43.56863" lon="2.35965">
        <ele>247.6767578</ele>
        <time>2015-12-17T15:38:58Z</time>
      </trkpt>
      <trkpt lat="43.56877" lon="2.35935">
        <ele>248.1575928</ele>
        <time>2015-12-17T15:39:06Z</time>
      </trkpt>
      <trkpt lat="43.5689" lon="2.3591">
        <ele>248.1575928</ele>
        <time>2015-12-17T15:39:12Z</time>
      </trkpt>
      <trkpt lat="43.56903" lon="2.35879">
        <ele>247.6767578</ele>
        <time>2015-12-17T15:39:17Z</time>
      </trkpt>
      <trkpt lat="43.56922" lon="2.35831">
        <ele>244.7928467</ele>
        <time>2015-12-17T15:39:23Z</time>
      </trkpt>
      <trkpt lat="43.56952" lon="2.35766">
        <ele>242.8702393</ele>
        <time>2015-12-17T15:39:30Z</time>
      </trkpt>
      <trkpt lat="43.56986" lon="2.35697">
        <ele>240.467041</ele>
        <time>2015-12-17T15:39:37Z</time>
      </trkpt>
      <trkpt lat="43.5702" lon="2.35634">
        <ele>238.0635986</ele>
        <time>2015-12-17T15:39:43Z</time>
      </trkpt>
      <trkpt lat="43.57042" lon="2.35583">
        <ele>237.1022949</ele>
        <time>2015-12-17T15:39:47Z</time>
      </trkpt>
      <trkpt lat="43.57066" lon="2.35531">
        <ele>236.1409912</ele>
        <time>2015-12-17T15:39:51Z</time>
      </trkpt>
      <trkpt lat="43.57074" lon="2.35519">
        <ele>235.6602783</ele>
        <time>2015-12-17T15:39:52Z</time>
      </trkpt>
      <trkpt lat="43.57105" lon="2.35501">
        <ele>231.8149414</ele>
        <time>2015-12-17T15:39:55Z</time>
      </trkpt>
      <trkpt lat="43.57165" lon="2.35482">
        <ele>229.4117432</ele>
        <time>2015-12-17T15:40:01Z</time>
      </trkpt>
      <trkpt lat="43.57228" lon="2.35463">
        <ele>227.4891357</ele>
        <time>2015-12-17T15:40:08Z</time>
      </trkpt>
      <trkpt lat="43.57254" lon="2.35441">
        <ele>227.9697266</ele>
        <time>2015-12-17T15:40:12Z</time>
      </trkpt>
      <trkpt lat="43.5726" lon="2.35411">
        <ele>228.4504395</ele>
        <time>2015-12-17T15:40:15Z</time>
      </trkpt>
      <trkpt lat="43.57265" lon="2.35339">
        <ele>227.4891357</ele>
        <time>2015-12-17T15:40:22Z</time>
      </trkpt>
      <trkpt lat="43.57265" lon="2.35328">
        <ele>227.9697266</ele>
        <time>2015-12-17T15:40:23Z</time>
      </trkpt>
      <trkpt lat="43.57254" lon="2.35292">
        <ele>226.0471191</ele>
        <time>2015-12-17T15:40:27Z</time>
      </trkpt>
      <trkpt lat="43.57251" lon="2.3527">
        <ele>226.0471191</ele>
        <time>2015-12-17T15:40:29Z</time>
      </trkpt>
      <trkpt lat="43.57252" lon="2.35258">
        <ele>226.527832</ele>
        <time>2015-12-17T15:40:30Z</time>
      </trkpt>
      <trkpt lat="43.57261" lon="2.35213">
        <ele>226.0471191</ele>
        <time>2015-12-17T15:40:34Z</time>
      </trkpt>
      <trkpt lat="43.57262" lon="2.35191">
        <ele>226.0471191</ele>
        <time>2015-12-17T15:40:36Z</time>
      </trkpt>
      <trkpt lat="43.57275" lon="2.35152">
        <ele>225.5665283</ele>
        <time>2015-12-17T15:40:40Z</time>
      </trkpt>
      <trkpt lat="43.57287" lon="2.35139">
        <ele>225.5665283</ele>
        <time>2015-12-17T15:40:42Z</time>
      </trkpt>
      <trkpt lat="43.57315" lon="2.35111">
        <ele>226.0471191</ele>
        <time>2015-12-17T15:40:47Z</time>
      </trkpt>
      <trkpt lat="43.57343" lon="2.35104">
        <ele>227.0085449</ele>
        <time>2015-12-17T15:40:51Z</time>
      </trkpt>
      <trkpt lat="43.57365" lon="2.35106">
        <ele>228.4504395</ele>
        <time>2015-12-17T15:40:55Z</time>
      </trkpt>
      <trkpt lat="43.57377" lon="2.35104">
        <ele>229.892334</ele>
        <time>2015-12-17T15:40:58Z</time>
      </trkpt>
      <trkpt lat="43.57395" lon="2.35099">
        <ele>232.7764893</ele>
        <time>2015-12-17T15:41:03Z</time>
      </trkpt>
      <trkpt lat="43.57418" lon="2.35105">
        <ele>232.2957764</ele>
        <time>2015-12-17T15:41:09Z</time>
      </trkpt>
      <trkpt lat="43.57435" lon="2.35108">
        <ele>232.7764893</ele>
        <time>2015-12-17T15:41:15Z</time>
      </trkpt>
      <trkpt lat="43.57441" lon="2.35105">
        <ele>232.2957764</ele>
        <time>2015-12-17T15:41:17Z</time>
      </trkpt>
      <trkpt lat="43.57446" lon="2.35088">
        <ele>231.3343506</ele>
        <time>2015-12-17T15:41:21Z</time>
      </trkpt>
      <trkpt lat="43.57452" lon="2.35043">
        <ele>232.2957764</ele>
        <time>2015-12-17T15:41:29Z</time>
      </trkpt>
      <trkpt lat="43.57458" lon="2.34991">
        <ele>232.7764893</ele>
        <time>2015-12-17T15:41:38Z</time>
      </trkpt>
      <trkpt lat="43.5746" lon="2.3498">
        <ele>232.7764893</ele>
        <time>2015-12-17T15:41:40Z</time>
      </trkpt>
      <trkpt lat="43.57466" lon="2.34931">
        <ele>227.0085449</ele>
        <time>2015-12-17T15:41:49Z</time>
      </trkpt>
      <trkpt lat="43.5747" lon="2.34892">
        <ele>223.6437988</ele>
        <time>2015-12-17T15:41:56Z</time>
      </trkpt>
      <trkpt lat="43.57472" lon="2.34869">
        <ele>224.6052246</ele>
        <time>2015-12-17T15:42:00Z</time>
      </trkpt>
      <trkpt lat="43.57472" lon="2.34845">
        <ele>228.4504395</ele>
        <time>2015-12-17T15:42:04Z</time>
      </trkpt>
      <trkpt lat="43.57476" lon="2.34818">
        <ele>228.4504395</ele>
        <time>2015-12-17T15:42:09Z</time>
      </trkpt>
      <trkpt lat="43.57478" lon="2.34777">
        <ele>231.8149414</ele>
        <time>2015-12-17T15:42:16Z</time>
      </trkpt>
      <trkpt lat="43.57483" lon="2.3473">
        <ele>228.4504395</ele>
        <time>2015-12-17T15:42:23Z</time>
      </trkpt>
      <trkpt lat="43.57485" lon="2.34673">
        <ele>229.4117432</ele>
        <time>2015-12-17T15:42:30Z</time>
      </trkpt>
      <trkpt lat="43.57477" lon="2.34633">
        <ele>227.9697266</ele>
        <time>2015-12-17T15:42:35Z</time>
      </trkpt>
      <trkpt lat="43.57473" lon="2.34625">
        <ele>227.4891357</ele>
        <time>2015-12-17T15:42:36Z</time>
      </trkpt>
      <trkpt lat="43.57444" lon="2.34574">
        <ele>225.0859375</ele>
        <time>2015-12-17T15:42:43Z</time>
      </trkpt>
      <trkpt lat="43.57394" lon="2.34498">
        <ele>228.9311523</ele>
        <time>2015-12-17T15:42:53Z</time>
      </trkpt>
      <trkpt lat="43.57346" lon="2.34422">
        <ele>226.527832</ele>
        <time>2015-12-17T15:43:03Z</time>
      </trkpt>
      <trkpt lat="43.57287" lon="2.34328">
        <ele>225.5665283</ele>
        <time>2015-12-17T15:43:15Z</time>
      </trkpt>
      <trkpt lat="43.57244" lon="2.34259">
        <ele>222.6824951</ele>
        <time>2015-12-17T15:43:23Z</time>
      </trkpt>
      <trkpt lat="43.57185" lon="2.34166">
        <ele>218.8372803</ele>
        <time>2015-12-17T15:43:33Z</time>
      </trkpt>
      <trkpt lat="43.5714" lon="2.34081">
        <ele>214.9919434</ele>
        <time>2015-12-17T15:43:42Z</time>
      </trkpt>
      <trkpt lat="43.57086" lon="2.33968">
        <ele>214.9919434</ele>
        <time>2015-12-17T15:43:53Z</time>
      </trkpt>
      <trkpt lat="43.57041" lon="2.33877">
        <ele>211.1467285</ele>
        <time>2015-12-17T15:44:02Z</time>
      </trkpt>
      <trkpt lat="43.57002" lon="2.33796">
        <ele>210.1854248</ele>
        <time>2015-12-17T15:44:10Z</time>
      </trkpt>
      <trkpt lat="43.56959" lon="2.33709">
        <ele>214.9919434</ele>
        <time>2015-12-17T15:44:19Z</time>
      </trkpt>
      <trkpt lat="43.5695" lon="2.3369">
        <ele>214.5112305</ele>
        <time>2015-12-17T15:44:22Z</time>
      </trkpt>
      <trkpt lat="43.56946" lon="2.33691">
        <ele>214.5112305</ele>
        <time>2015-12-17T15:44:26Z</time>
      </trkpt>
      <trkpt lat="43.56947" lon="2.33694">
        <ele>214.5112305</ele>
        <time>2015-12-17T15:44:27Z</time>
      </trkpt>
      <trkpt lat="43.56957" lon="2.33714">
        <ele>214.9919434</ele>
        <time>2015-12-17T15:44:33Z</time>
      </trkpt>
      <trkpt lat="43.56975" lon="2.3375">
        <ele>216.43396</ele>
        <time>2015-12-17T15:44:40Z</time>
      </trkpt>
      <trkpt lat="43.56992" lon="2.33785">
        <ele>218.8372803</ele>
        <time>2015-12-17T15:44:47Z</time>
      </trkpt>
      <trkpt lat="43.57006" lon="2.33815">
        <ele>218.8372803</ele>
        <time>2015-12-17T15:44:54Z</time>
      </trkpt>
      <trkpt lat="43.57018" lon="2.33842">
        <ele>218.8372803</ele>
        <time>2015-12-17T15:45:01Z</time>
      </trkpt>
      <trkpt lat="43.5703" lon="2.33868">
        <ele>219.798584</ele>
        <time>2015-12-17T15:45:07Z</time>
      </trkpt>
      <trkpt lat="43.57039" lon="2.33887">
        <ele>218.8372803</ele>
        <time>2015-12-17T15:45:12Z</time>
      </trkpt>
      <trkpt lat="43.5705" lon="2.33905">
        <ele>218.8372803</ele>
        <time>2015-12-17T15:45:18Z</time>
      </trkpt>
      <trkpt lat="43.57052" lon="2.33906">
        <ele>218.8372803</ele>
        <time>2015-12-17T15:45:19Z</time>
      </trkpt>
      <trkpt lat="43.57057" lon="2.33912">
        <ele>218.3565674</ele>
        <time>2015-12-17T15:45:23Z</time>
      </trkpt>
      <trkpt lat="43.57055" lon="2.33905">
        <ele>217.3953857</ele>
        <time>2015-12-17T15:45:27Z</time>
      </trkpt>
      <trkpt lat="43.57045" lon="2.33886">
        <ele>216.9146729</ele>
        <time>2015-12-17T15:45:33Z</time>
      </trkpt>
      <trkpt lat="43.57026" lon="2.33845">
        <ele>214.5112305</ele>
        <time>2015-12-17T15:45:42Z</time>
      </trkpt>
      <trkpt lat="43.57011" lon="2.33813">
        <ele>213.0693359</ele>
        <time>2015-12-17T15:45:49Z</time>
      </trkpt>
      <trkpt lat="43.56994" lon="2.33779">
        <ele>213.5500488</ele>
        <time>2015-12-17T15:45:57Z</time>
      </trkpt>
      <trkpt lat="43.5699" lon="2.33769">
        <ele>213.0693359</ele>
        <time>2015-12-17T15:46:01Z</time>
      </trkpt>
      <trkpt lat="43.56991" lon="2.33768">
        <ele>212.1080322</ele>
        <time>2015-12-17T15:46:06Z</time>
      </trkpt>
      <trkpt lat="43.56989" lon="2.33768">
        <ele>211.1467285</ele>
        <time>2015-12-17T15:46:17Z</time>
      </trkpt>
      <trkpt lat="43.56989" lon="2.33768">
        <ele>211.1467285</ele>
        <time>2015-12-17T15:46:21Z</time>
      </trkpt>
      <trkpt lat="43.56982" lon="2.33756">
        <ele>213.5500488</ele>
        <time>2015-12-17T15:46:27Z</time>
      </trkpt>
      <trkpt lat="43.56971" lon="2.33734">
        <ele>214.0306396</ele>
        <time>2015-12-17T15:46:32Z</time>
      </trkpt>
      <trkpt lat="43.56948" lon="2.33686">
        <ele>217.3953857</ele>
        <time>2015-12-17T15:46:42Z</time>
      </trkpt>
      <trkpt lat="43.56927" lon="2.33647">
        <ele>219.798584</ele>
        <time>2015-12-17T15:46:50Z</time>
      </trkpt>
      <trkpt lat="43.569" lon="2.33604">
        <ele>216.9146729</ele>
        <time>2015-12-17T15:46:57Z</time>
      </trkpt>
      <trkpt lat="43.56871" lon="2.3356">
        <ele>216.9146729</ele>
        <time>2015-12-17T15:47:04Z</time>
      </trkpt>
      <trkpt lat="43.56838" lon="2.3351">
        <ele>216.9146729</ele>
        <time>2015-12-17T15:47:13Z</time>
      </trkpt>
      <trkpt lat="43.56821" lon="2.33484">
        <ele>218.3565674</ele>
        <time>2015-12-17T15:47:19Z</time>
      </trkpt>
      <trkpt lat="43.56806" lon="2.33453">
        <ele>217.8759766</ele>
        <time>2015-12-17T15:47:26Z</time>
      </trkpt>
      <trkpt lat="43.56799" lon="2.33421">
        <ele>219.3179932</ele>
        <time>2015-12-17T15:47:32Z</time>
      </trkpt>
      <trkpt lat="43.56795" lon="2.33377">
        <ele>222.2017822</ele>
        <time>2015-12-17T15:47:40Z</time>
      </trkpt>
      <trkpt lat="43.56787" lon="2.33318">
        <ele>226.0471191</ele>
        <time>2015-12-17T15:47:51Z</time>
      </trkpt>
      <trkpt lat="43.56783" lon="2.33281">
        <ele>226.0471191</ele>
        <time>2015-12-17T15:47:58Z</time>
      </trkpt>
      <trkpt lat="43.56777" lon="2.33231">
        <ele>227.0085449</ele>
        <time>2015-12-17T15:48:07Z</time>
      </trkpt>
      <trkpt lat="43.56771" lon="2.33174">
        <ele>228.9311523</ele>
        <time>2015-12-17T15:48:17Z</time>
      </trkpt>
      <trkpt lat="43.56763" lon="2.33098">
        <ele>229.892334</ele>
        <time>2015-12-17T15:48:30Z</time>
      </trkpt>
      <trkpt lat="43.56755" lon="2.33037">
        <ele>229.892334</ele>
        <time>2015-12-17T15:48:40Z</time>
      </trkpt>
      <trkpt lat="43.56748" lon="2.32976">
        <ele>225.5665283</ele>
        <time>2015-12-17T15:48:49Z</time>
      </trkpt>
      <trkpt lat="43.5674" lon="2.32909">
        <ele>223.6437988</ele>
        <time>2015-12-17T15:48:57Z</time>
      </trkpt>
      <trkpt lat="43.56731" lon="2.32834">
        <ele>223.6437988</ele>
        <time>2015-12-17T15:49:05Z</time>
      </trkpt>
      <trkpt lat="43.56722" lon="2.3276">
        <ele>223.6437988</ele>
        <time>2015-12-17T15:49:12Z</time>
      </trkpt>
      <trkpt lat="43.56709" lon="2.32651">
        <ele>221.2406006</ele>
        <time>2015-12-17T15:49:22Z</time>
      </trkpt>
      <trkpt lat="43.56698" lon="2.3256">
        <ele>221.7211914</ele>
        <time>2015-12-17T15:49:31Z</time>
      </trkpt>
      <trkpt lat="43.56684" lon="2.32443">
        <ele>224.1245117</ele>
        <time>2015-12-17T15:49:43Z</time>
      </trkpt>
      <trkpt lat="43.56671" lon="2.32336">
        <ele>223.6437988</ele>
        <time>2015-12-17T15:49:54Z</time>
      </trkpt>
      <trkpt lat="43.5666" lon="2.32247">
        <ele>222.6824951</ele>
        <time>2015-12-17T15:50:02Z</time>
      </trkpt>
      <trkpt lat="43.56648" lon="2.3215">
        <ele>221.2406006</ele>
        <time>2015-12-17T15:50:10Z</time>
      </trkpt>
      <trkpt lat="43.56634" lon="2.32033">
        <ele>219.798584</ele>
        <time>2015-12-17T15:50:19Z</time>
      </trkpt>
      <trkpt lat="43.56618" lon="2.31917">
        <ele>216.9146729</ele>
        <time>2015-12-17T15:50:28Z</time>
      </trkpt>
      <trkpt lat="43.56614" lon="2.31905">
        <ele>216.9146729</ele>
        <time>2015-12-17T15:50:29Z</time>
      </trkpt>
      <trkpt lat="43.56594" lon="2.3187">
        <ele>216.43396</ele>
        <time>2015-12-17T15:50:33Z</time>
      </trkpt>
      <trkpt lat="43.56586" lon="2.31861">
        <ele>215.9532471</ele>
        <time>2015-12-17T15:50:36Z</time>
      </trkpt>
      <trkpt lat="43.56574" lon="2.31847">
        <ele>215.4726563</ele>
        <time>2015-12-17T15:50:40Z</time>
      </trkpt>
      <trkpt lat="43.56567" lon="2.31816">
        <ele>215.4726563</ele>
        <time>2015-12-17T15:50:44Z</time>
      </trkpt>
      <trkpt lat="43.56568" lon="2.31807">
        <ele>215.4726563</ele>
        <time>2015-12-17T15:50:45Z</time>
      </trkpt>
      <trkpt lat="43.56572" lon="2.31792">
        <ele>215.4726563</ele>
        <time>2015-12-17T15:50:47Z</time>
      </trkpt>
      <trkpt lat="43.56573" lon="2.31759">
        <ele>216.43396</ele>
        <time>2015-12-17T15:50:51Z</time>
      </trkpt>
      <trkpt lat="43.56563" lon="2.31675">
        <ele>219.3179932</ele>
        <time>2015-12-17T15:51:01Z</time>
      </trkpt>
      <trkpt lat="43.56558" lon="2.31625">
        <ele>222.2017822</ele>
        <time>2015-12-17T15:51:08Z</time>
      </trkpt>
      <trkpt lat="43.56557" lon="2.31572">
        <ele>221.7211914</ele>
        <time>2015-12-17T15:51:16Z</time>
      </trkpt>
      <trkpt lat="43.56563" lon="2.31514">
        <ele>218.8372803</ele>
        <time>2015-12-17T15:51:24Z</time>
      </trkpt>
      <trkpt lat="43.56566" lon="2.31469">
        <ele>218.8372803</ele>
        <time>2015-12-17T15:51:30Z</time>
      </trkpt>
      <trkpt lat="43.56569" lon="2.31425">
        <ele>218.8372803</ele>
        <time>2015-12-17T15:51:36Z</time>
      </trkpt>
      <trkpt lat="43.56563" lon="2.31387">
        <ele>220.2791748</ele>
        <time>2015-12-17T15:51:41Z</time>
      </trkpt>
      <trkpt lat="43.56547" lon="2.31367">
        <ele>220.7598877</ele>
        <time>2015-12-17T15:51:45Z</time>
      </trkpt>
      <trkpt lat="43.56543" lon="2.31364">
        <ele>220.7598877</ele>
        <time>2015-12-17T15:51:46Z</time>
      </trkpt>
      <trkpt lat="43.56505" lon="2.31349">
        <ele>221.2406006</ele>
        <time>2015-12-17T15:51:53Z</time>
      </trkpt>
      <trkpt lat="43.5648" lon="2.3134">
        <ele>221.2406006</ele>
        <time>2015-12-17T15:51:57Z</time>
      </trkpt>
      <trkpt lat="43.56445" lon="2.31305">
        <ele>223.163208</ele>
        <time>2015-12-17T15:52:04Z</time>
      </trkpt>
      <trkpt lat="43.56422" lon="2.3127">
        <ele>225.5665283</ele>
        <time>2015-12-17T15:52:10Z</time>
      </trkpt>
      <trkpt lat="43.56399" lon="2.31236">
        <ele>227.9697266</ele>
        <time>2015-12-17T15:52:17Z</time>
      </trkpt>
      <trkpt lat="43.56378" lon="2.31207">
        <ele>228.4504395</ele>
        <time>2015-12-17T15:52:24Z</time>
      </trkpt>
      <trkpt lat="43.56354" lon="2.31171">
        <ele>227.4891357</ele>
        <time>2015-12-17T15:52:33Z</time>
      </trkpt>
      <trkpt lat="43.56339" lon="2.31142">
        <ele>225.5665283</ele>
        <time>2015-12-17T15:52:39Z</time>
      </trkpt>
      <trkpt lat="43.56317" lon="2.31109">
        <ele>225.5665283</ele>
        <time>2015-12-17T15:52:45Z</time>
      </trkpt>
      <trkpt lat="43.56306" lon="2.31093">
        <ele>225.0859375</ele>
        <time>2015-12-17T15:52:48Z</time>
      </trkpt>
      <trkpt lat="43.56281" lon="2.31049">
        <ele>224.6052246</ele>
        <time>2015-12-17T15:52:56Z</time>
      </trkpt>
      <trkpt lat="43.56262" lon="2.31014">
        <ele>224.1245117</ele>
        <time>2015-12-17T15:53:03Z</time>
      </trkpt>
      <trkpt lat="43.56236" lon="2.30958">
        <ele>225.0859375</ele>
        <time>2015-12-17T15:53:13Z</time>
      </trkpt>
      <trkpt lat="43.56231" lon="2.30939">
        <ele>226.527832</ele>
        <time>2015-12-17T15:53:16Z</time>
      </trkpt>
      <trkpt lat="43.56228" lon="2.30928">
        <ele>227.0085449</ele>
        <time>2015-12-17T15:53:18Z</time>
      </trkpt>
      <trkpt lat="43.56224" lon="2.30911">
        <ele>227.0085449</ele>
        <time>2015-12-17T15:53:21Z</time>
      </trkpt>
      <trkpt lat="43.56223" lon="2.30893">
        <ele>226.527832</ele>
        <time>2015-12-17T15:53:25Z</time>
      </trkpt>
      <trkpt lat="43.5623" lon="2.30887">
        <ele>226.0471191</ele>
        <time>2015-12-17T15:53:27Z</time>
      </trkpt>
      <trkpt lat="43.56266" lon="2.30869">
        <ele>226.0471191</ele>
        <time>2015-12-17T15:53:34Z</time>
      </trkpt>
      <trkpt lat="43.56297" lon="2.30841">
        <ele>225.5665283</ele>
        <time>2015-12-17T15:53:40Z</time>
      </trkpt>
      <trkpt lat="43.56302" lon="2.30836">
        <ele>225.5665283</ele>
        <time>2015-12-17T15:53:41Z</time>
      </trkpt>
      <trkpt lat="43.56323" lon="2.30813">
        <ele>224.6052246</ele>
        <time>2015-12-17T15:53:45Z</time>
      </trkpt>
      <trkpt lat="43.56348" lon="2.30792">
        <ele>223.163208</ele>
        <time>2015-12-17T15:53:49Z</time>
      </trkpt>
      <trkpt lat="43.56402" lon="2.30764">
        <ele>220.7598877</ele>
        <time>2015-12-17T15:53:56Z</time>
      </trkpt>
      <trkpt lat="43.56433" lon="2.30746">
        <ele>220.2791748</ele>
        <time>2015-12-17T15:54:00Z</time>
      </trkpt>
      <trkpt lat="43.56455" lon="2.30727">
        <ele>219.3179932</ele>
        <time>2015-12-17T15:54:03Z</time>
      </trkpt>
      <trkpt lat="43.56494" lon="2.3067">
        <ele>216.43396</ele>
        <time>2015-12-17T15:54:10Z</time>
      </trkpt>
      <trkpt lat="43.56517" lon="2.30629">
        <ele>215.4726563</ele>
        <time>2015-12-17T15:54:15Z</time>
      </trkpt>
      <trkpt lat="43.56546" lon="2.30591">
        <ele>214.0306396</ele>
        <time>2015-12-17T15:54:20Z</time>
      </trkpt>
      <trkpt lat="43.56577" lon="2.30555">
        <ele>212.588623</ele>
        <time>2015-12-17T15:54:25Z</time>
      </trkpt>
      <trkpt lat="43.5661" lon="2.30519">
        <ele>212.588623</ele>
        <time>2015-12-17T15:54:30Z</time>
      </trkpt>
      <trkpt lat="43.56655" lon="2.3048">
        <ele>211.6274414</ele>
        <time>2015-12-17T15:54:37Z</time>
      </trkpt>
      <trkpt lat="43.56702" lon="2.30442">
        <ele>212.588623</ele>
        <time>2015-12-17T15:54:45Z</time>
      </trkpt>
      <trkpt lat="43.56713" lon="2.30431">
        <ele>213.0693359</ele>
        <time>2015-12-17T15:54:47Z</time>
      </trkpt>
      <trkpt lat="43.56731" lon="2.30422">
        <ele>213.0693359</ele>
        <time>2015-12-17T15:54:50Z</time>
      </trkpt>
      <trkpt lat="43.56749" lon="2.30403">
        <ele>213.0693359</ele>
        <time>2015-12-17T15:54:54Z</time>
      </trkpt>
      <trkpt lat="43.56784" lon="2.30374">
        <ele>213.0693359</ele>
        <time>2015-12-17T15:55:01Z</time>
      </trkpt>
      <trkpt lat="43.56831" lon="2.30331">
        <ele>212.1080322</ele>
        <time>2015-12-17T15:55:10Z</time>
      </trkpt>
      <trkpt lat="43.56852" lon="2.30302">
        <ele>211.6274414</ele>
        <time>2015-12-17T15:55:15Z</time>
      </trkpt>
      <trkpt lat="43.56863" lon="2.30285">
        <ele>210.6660156</ele>
        <time>2015-12-17T15:55:18Z</time>
      </trkpt>
      <trkpt lat="43.56875" lon="2.30261">
        <ele>209.704834</ele>
        <time>2015-12-17T15:55:22Z</time>
      </trkpt>
      <trkpt lat="43.5688" lon="2.30248">
        <ele>209.704834</ele>
        <time>2015-12-17T15:55:24Z</time>
      </trkpt>
      <trkpt lat="43.56885" lon="2.30222">
        <ele>208.7434082</ele>
        <time>2015-12-17T15:55:28Z</time>
      </trkpt>
      <trkpt lat="43.56888" lon="2.30191">
        <ele>208.2628174</ele>
        <time>2015-12-17T15:55:33Z</time>
      </trkpt>
      <trkpt lat="43.56891" lon="2.30186">
        <ele>208.2628174</ele>
        <time>2015-12-17T15:55:34Z</time>
      </trkpt>
      <trkpt lat="43.56903" lon="2.30157">
        <ele>207.3013916</ele>
        <time>2015-12-17T15:55:40Z</time>
      </trkpt>
      <trkpt lat="43.56907" lon="2.30142">
        <ele>207.3013916</ele>
        <time>2015-12-17T15:55:43Z</time>
      </trkpt>
      <trkpt lat="43.56917" lon="2.30157">
        <ele>206.8206787</ele>
        <time>2015-12-17T15:55:46Z</time>
      </trkpt>
      <trkpt lat="43.56959" lon="2.30198">
        <ele>206.3400879</ele>
        <time>2015-12-17T15:55:55Z</time>
      </trkpt>
      <trkpt lat="43.56993" lon="2.30232">
        <ele>207.3013916</ele>
        <time>2015-12-17T15:56:03Z</time>
      </trkpt>
      <trkpt lat="43.57001" lon="2.30241">
        <ele>207.3013916</ele>
        <time>2015-12-17T15:56:05Z</time>
      </trkpt>
      <trkpt lat="43.57011" lon="2.30268">
        <ele>205.3787842</ele>
        <time>2015-12-17T15:56:09Z</time>
      </trkpt>
      <trkpt lat="43.57011" lon="2.30286">
        <ele>204.8980713</ele>
        <time>2015-12-17T15:56:11Z</time>
      </trkpt>
      <trkpt lat="43.57006" lon="2.30356">
        <ele>203.4561768</ele>
        <time>2015-12-17T15:56:19Z</time>
      </trkpt>
      <trkpt lat="43.57006" lon="2.30419">
        <ele>202.9754639</ele>
        <time>2015-12-17T15:56:27Z</time>
      </trkpt>
      <trkpt lat="43.57005" lon="2.30484">
        <ele>203.4561768</ele>
        <time>2015-12-17T15:56:36Z</time>
      </trkpt>
      <trkpt lat="43.57004" lon="2.30514">
        <ele>202.9754639</ele>
        <time>2015-12-17T15:56:41Z</time>
      </trkpt>
      <trkpt lat="43.57003" lon="2.30533">
        <ele>202.9754639</ele>
        <time>2015-12-17T15:56:44Z</time>
      </trkpt>
      <trkpt lat="43.56998" lon="2.30558">
        <ele>202.9754639</ele>
        <time>2015-12-17T15:56:48Z</time>
      </trkpt>
      <trkpt lat="43.56986" lon="2.30592">
        <ele>203.4561768</ele>
        <time>2015-12-17T15:56:54Z</time>
      </trkpt>
      <trkpt lat="43.56971" lon="2.30621">
        <ele>204.4174805</ele>
        <time>2015-12-17T15:57:01Z</time>
      </trkpt>
      <trkpt lat="43.56964" lon="2.30642">
        <ele>204.8980713</ele>
        <time>2015-12-17T15:57:06Z</time>
      </trkpt>
      <trkpt lat="43.56945" lon="2.30684">
        <ele>210.1854248</ele>
        <time>2015-12-17T15:57:16Z</time>
      </trkpt>
      <trkpt lat="43.5692" lon="2.30735">
        <ele>212.588623</ele>
        <time>2015-12-17T15:57:28Z</time>
      </trkpt>
      <trkpt lat="43.56903" lon="2.30769">
        <ele>212.1080322</ele>
        <time>2015-12-17T15:57:36Z</time>
      </trkpt>
      <trkpt lat="43.56891" lon="2.30796">
        <ele>213.0693359</ele>
        <time>2015-12-17T15:57:44Z</time>
      </trkpt>
      <trkpt lat="43.56887" lon="2.30815">
        <ele>213.5500488</ele>
        <time>2015-12-17T15:57:50Z</time>
      </trkpt>
      <trkpt lat="43.56886" lon="2.30833">
        <ele>209.704834</ele>
        <time>2015-12-17T15:57:55Z</time>
      </trkpt>
      <trkpt lat="43.56902" lon="2.30859">
        <ele>207.7821045</ele>
        <time>2015-12-17T15:57:59Z</time>
      </trkpt>
      <trkpt lat="43.56912" lon="2.30874">
        <ele>204.8980713</ele>
        <time>2015-12-17T15:58:04Z</time>
      </trkpt>
      <trkpt lat="43.56908" lon="2.30874">
        <ele>204.4174805</ele>
        <time>2015-12-17T15:58:05Z</time>
      </trkpt>
      <trkpt lat="43.5688" lon="2.30875">
        <ele>203.9368896</ele>
        <time>2015-12-17T15:58:13Z</time>
      </trkpt>
      <trkpt lat="43.56874" lon="2.30875">
        <ele>204.4174805</ele>
        <time>2015-12-17T15:58:15Z</time>
      </trkpt>
      <trkpt lat="43.56867" lon="2.3088">
        <ele>208.7434082</ele>
        <time>2015-12-17T15:58:20Z</time>
      </trkpt>
      <trkpt lat="43.56862" lon="2.30891">
        <ele>213.0693359</ele>
        <time>2015-12-17T15:58:25Z</time>
      </trkpt>
      <trkpt lat="43.56857" lon="2.30907">
        <ele>214.0306396</ele>
        <time>2015-12-17T15:58:29Z</time>
      </trkpt>
      <trkpt lat="43.5684" lon="2.30942">
        <ele>219.798584</ele>
        <time>2015-12-17T15:58:39Z</time>
      </trkpt>
      <trkpt lat="43.56834" lon="2.30952">
        <ele>221.2406006</ele>
        <time>2015-12-17T15:58:43Z</time>
      </trkpt>
      <trkpt lat="43.56831" lon="2.30972">
        <ele>216.9146729</ele>
        <time>2015-12-17T15:58:48Z</time>
      </trkpt>
      <trkpt lat="43.56828" lon="2.30986">
        <ele>211.1467285</ele>
        <time>2015-12-17T15:58:53Z</time>
      </trkpt>
    </trkseg>
  </trk>
</gpx>